<?xml version="1.0" encoding="UTF-8" standalone="no" ?>
<gpx xmlns="http://www.topografix.com/GPX/1/1" xmlns:xsi="http://www.w3.org/2001/XMLSchema-instance" xsi:schemaLocation="http://www.topografix.com/GPX/1/1 http://www.topografix.com/GPX/1/1/gpx.xsd" version="1.1" creator="VisuGPX - https://www.visugpx.com">
  <metadata>
    <name>Orchamp Vennes Ascap 4 traces</name>
    <desc><![CDATA[Les 4 traces pour la reco Orchamp vennes; ]]></desc>
  </metadata>
  <trk>
    <name><![CDATA[Orchamp Vennes (Reverot)]]></name>
    <extensions>
      <line xmlns="http://www.topografix.com/GPX/gpx_style/0/2">
        <color>ff00dd</color>
        <width>4</width>
      </line>
    </extensions>
    <trkseg>
      <trkpt lat="47.12957" lon="6.52546">
        <ele>755.266925</ele>
        <time>2023-01-15T16:47:08.992Z</time>
        <extensions>
          <visugpx:TrkExtension xmlns:visugpx="https://www.visugpx.com/editgpx/">
            <visugpx:node>1</visugpx:node>
            </visugpx:TrkExtension>
        </extensions>
      </trkpt>
      <trkpt lat="47.12979" lon="6.52521">
        <ele>755.266925</ele>
        <time>2023-01-15T16:47:15.192Z</time>
      </trkpt>
      <trkpt lat="47.12997" lon="6.52533">
        <ele>755.266925</ele>
        <time>2023-01-15T16:47:19.733Z</time>
      </trkpt>
      <trkpt lat="47.13" lon="6.52535">
        <ele>755.266925</ele>
        <time>2023-01-15T16:47:20.301Z</time>
      </trkpt>
      <trkpt lat="47.13021" lon="6.52551">
        <ele>755.266925</ele>
        <time>2023-01-15T16:47:25.631Z</time>
      </trkpt>
      <trkpt lat="47.1303" lon="6.52556">
        <ele>755.266925</ele>
        <time>2023-01-15T16:47:27.728Z</time>
      </trkpt>
      <trkpt lat="47.13042" lon="6.52526">
        <ele>755.885915</ele>
        <time>2023-01-15T16:47:33.329Z</time>
      </trkpt>
      <trkpt lat="47.13054" lon="6.52509">
        <ele>756.491135</ele>
        <time>2023-01-15T16:47:37.506Z</time>
      </trkpt>
      <trkpt lat="47.13061" lon="6.52502">
        <ele>756.775633</ele>
        <time>2023-01-15T16:47:39.437Z</time>
      </trkpt>
      <trkpt lat="47.13092" lon="6.52486">
        <ele>757.957992</ele>
        <time>2023-01-15T16:47:47.945Z</time>
      </trkpt>
      <trkpt lat="47.13116" lon="6.52478">
        <ele>758.831167</ele>
        <time>2023-01-15T16:47:54.611Z</time>
      </trkpt>
      <trkpt lat="47.13137" lon="6.52454">
        <ele>759.770894</ele>
        <time>2023-01-15T16:48:01.488Z</time>
      </trkpt>
      <trkpt lat="47.13149" lon="6.52438">
        <ele>760.351615</ele>
        <time>2023-01-15T16:48:05.521Z</time>
      </trkpt>
      <trkpt lat="47.13162" lon="6.52431">
        <ele>760.832426</ele>
        <time>2023-01-15T16:48:09.228Z</time>
      </trkpt>
      <trkpt lat="47.13185" lon="6.52423">
        <ele>761.690244</ele>
        <time>2023-01-15T16:48:15.407Z</time>
      </trkpt>
      <trkpt lat="47.13188" lon="6.52421">
        <ele>761.965883</ele>
        <time>2023-01-15T16:48:16.520Z</time>
      </trkpt>
      <trkpt lat="47.13201" lon="6.52416">
        <ele>762.852989</ele>
        <time>2023-01-15T16:48:20.189Z</time>
      </trkpt>
      <trkpt lat="47.13212" lon="6.52411">
        <ele>763.689251</ele>
        <time>2023-01-15T16:48:23.728Z</time>
      </trkpt>
      <trkpt lat="47.13219" lon="6.52408">
        <ele>764.154884</ele>
        <time>2023-01-15T16:48:25.518Z</time>
      </trkpt>
      <trkpt lat="47.1324" lon="6.52399">
        <ele>765.705726</ele>
        <time>2023-01-15T16:48:32.501Z</time>
      </trkpt>
      <trkpt lat="47.13267" lon="6.524">
        <ele>767.623731</ele>
        <time>2023-01-15T16:48:41.327Z</time>
      </trkpt>
      <trkpt lat="47.13287" lon="6.52408">
        <ele>769.023338</ele>
        <time>2023-01-15T16:48:48.755Z</time>
      </trkpt>
      <trkpt lat="47.13316" lon="6.52428">
        <ele>771.255061</ele>
        <time>2023-01-15T16:49:00.515Z</time>
      </trkpt>
      <trkpt lat="47.13332" lon="6.524">
        <ele>773.011634</ele>
        <time>2023-01-15T16:49:08.914Z</time>
      </trkpt>
      <trkpt lat="47.13333" lon="6.52391">
        <ele>773.423615</ele>
        <time>2023-01-15T16:49:11.296Z</time>
      </trkpt>
      <trkpt lat="47.13359" lon="6.52398">
        <ele>775.525254</ele>
        <time>2023-01-15T16:49:20.716Z</time>
      </trkpt>
      <trkpt lat="47.13389" lon="6.52401">
        <ele>778.070178</ele>
        <time>2023-01-15T16:49:31.286Z</time>
      </trkpt>
      <trkpt lat="47.13393" lon="6.52372">
        <ele>779.826247</ele>
        <time>2023-01-15T16:49:39.568Z</time>
      </trkpt>
      <trkpt lat="47.13403" lon="6.52344">
        <ele>781.635924</ele>
        <time>2023-01-15T16:49:47.341Z</time>
      </trkpt>
      <trkpt lat="47.1342" lon="6.52269">
        <ele>786.336872</ele>
        <time>2023-01-15T16:50:08.402Z</time>
      </trkpt>
      <trkpt lat="47.1342" lon="6.52243">
        <ele>787.841056</ele>
        <time>2023-01-15T16:50:14.998Z</time>
      </trkpt>
      <trkpt lat="47.13413" lon="6.52187">
        <ele>790.961005</ele>
        <time>2023-01-15T16:50:28.800Z</time>
      </trkpt>
      <trkpt lat="47.13408" lon="6.52172">
        <ele>791.763803</ele>
        <time>2023-01-15T16:50:32.703Z</time>
      </trkpt>
      <trkpt lat="47.13402" lon="6.52152">
        <ele>792.835325</ele>
        <time>2023-01-15T16:50:37.291Z</time>
      </trkpt>
      <trkpt lat="47.1338" lon="6.52129">
        <ele>794.804896</ele>
        <time>2023-01-15T16:50:45.558Z</time>
      </trkpt>
      <trkpt lat="47.13338" lon="6.52087">
        <ele>798.488071</ele>
        <time>2023-01-15T16:51:02.709Z</time>
      </trkpt>
      <trkpt lat="47.13316" lon="6.52055">
        <ele>800.704758</ele>
        <time>2023-01-15T16:51:13.013Z</time>
      </trkpt>
      <trkpt lat="47.13299" lon="6.52026">
        <ele>802.514178</ele>
        <time>2023-01-15T16:51:21.261Z</time>
      </trkpt>
      <trkpt lat="47.1329" lon="6.52005">
        <ele>803.925992</ele>
        <time>2023-01-15T16:51:26.704Z</time>
      </trkpt>
      <trkpt lat="47.13281" lon="6.51976">
        <ele>805.716502</ele>
        <time>2023-01-15T16:51:33.864Z</time>
      </trkpt>
      <trkpt lat="47.13278" lon="6.51926">
        <ele>808.579542</ele>
        <time>2023-01-15T16:51:45.487Z</time>
      </trkpt>
      <trkpt lat="47.13278" lon="6.51913">
        <ele>809.281632</ele>
        <time>2023-01-15T16:51:48.386Z</time>
      </trkpt>
      <trkpt lat="47.13275" lon="6.51785">
        <ele>816.581381</ele>
        <time>2023-01-15T16:52:21.072Z</time>
      </trkpt>
      <trkpt lat="47.13233" lon="6.51528">
        <ele>834.146923</ele>
        <time>2023-01-15T16:53:34.497Z</time>
      </trkpt>
      <trkpt lat="47.13221" lon="6.51404">
        <ele>842.16892</ele>
        <time>2023-01-15T16:54:07.482Z</time>
      </trkpt>
      <trkpt lat="47.1322" lon="6.51365">
        <ele>844.636103</ele>
        <time>2023-01-15T16:54:17.607Z</time>
      </trkpt>
      <trkpt lat="47.13245" lon="6.51359">
        <ele>847.009711</ele>
        <time>2023-01-15T16:54:27.409Z</time>
      </trkpt>
      <trkpt lat="47.13255" lon="6.51371">
        <ele>848.233621</ele>
        <time>2023-01-15T16:54:31.994Z</time>
      </trkpt>
      <trkpt lat="47.13289" lon="6.51434">
        <ele>853.496607</ele>
        <time>2023-01-15T16:54:52.095Z</time>
      </trkpt>
      <trkpt lat="47.13367" lon="6.51546">
        <ele>865.599474</ele>
        <time>2023-01-15T16:55:38.791Z</time>
      </trkpt>
      <trkpt lat="47.13412" lon="6.51582">
        <ele>871.380901</ele>
        <time>2023-01-15T16:56:03.400Z</time>
      </trkpt>
      <trkpt lat="47.1345" lon="6.51616">
        <ele>877.274811</ele>
        <time>2023-01-15T16:56:23.938Z</time>
      </trkpt>
      <trkpt lat="47.13468" lon="6.51646">
        <ele>881.169404</ele>
        <time>2023-01-15T16:56:39.329Z</time>
      </trkpt>
      <trkpt lat="47.13475" lon="6.51645">
        <ele>882.183632</ele>
        <time>2023-01-15T16:56:43.260Z</time>
      </trkpt>
      <trkpt lat="47.13489" lon="6.5162">
        <ele>885.132015</ele>
        <time>2023-01-15T16:56:55.566Z</time>
      </trkpt>
      <trkpt lat="47.13493" lon="6.51579">
        <ele>889.116455</ele>
        <time>2023-01-15T16:57:12.820Z</time>
      </trkpt>
      <trkpt lat="47.13486" lon="6.5154">
        <ele>892.907355</ele>
        <time>2023-01-15T16:57:29.577Z</time>
      </trkpt>
      <trkpt lat="47.13492" lon="6.51469">
        <ele>899.668453</ele>
        <time>2023-01-15T16:57:59.233Z</time>
      </trkpt>
      <trkpt lat="47.13506" lon="6.51371">
        <ele>909.350351</ele>
        <time>2023-01-15T16:58:39.513Z</time>
      </trkpt>
      <trkpt lat="47.1352" lon="6.51305">
        <ele>915.986291</ele>
        <time>2023-01-15T16:59:06.694Z</time>
      </trkpt>
      <trkpt lat="47.13539" lon="6.5119">
        <ele>925.784157</ele>
        <time>2023-01-15T16:59:52.548Z</time>
      </trkpt>
      <trkpt lat="47.13543" lon="6.51167">
        <ele>927.277898</ele>
        <time>2023-01-15T17:00:01.516Z</time>
      </trkpt>
      <trkpt lat="47.13551" lon="6.51146">
        <ele>928.831723</ele>
        <time>2023-01-15T17:00:09.092Z</time>
      </trkpt>
      <trkpt lat="47.13556" lon="6.51112">
        <ele>930.97599</ele>
        <time>2023-01-15T17:00:20.280Z</time>
      </trkpt>
      <trkpt lat="47.13564" lon="6.5109">
        <ele>932.612053</ele>
        <time>2023-01-15T17:00:28.053Z</time>
      </trkpt>
      <trkpt lat="47.13613" lon="6.5103">
        <ele>938.471846</ele>
        <time>2023-01-15T17:00:54.661Z</time>
      </trkpt>
      <trkpt lat="47.13638" lon="6.51011">
        <ele>939.278409</ele>
        <time>2023-01-15T17:01:04.362Z</time>
      </trkpt>
      <trkpt lat="47.13665" lon="6.51">
        <ele>939.074619</ele>
        <time>2023-01-15T17:01:12.907Z</time>
      </trkpt>
      <trkpt lat="47.1374" lon="6.50962">
        <ele>938.511164</ele>
        <time>2023-01-15T17:01:35.447Z</time>
      </trkpt>
      <trkpt lat="47.13806" lon="6.50912">
        <ele>936.715001</ele>
        <time>2023-01-15T17:01:54.349Z</time>
      </trkpt>
      <trkpt lat="47.13808" lon="6.50892">
        <ele>935.773608</ele>
        <time>2023-01-15T17:01:57.587Z</time>
      </trkpt>
      <trkpt lat="47.13802" lon="6.50864">
        <ele>934.415109</ele>
        <time>2023-01-15T17:02:02.327Z</time>
      </trkpt>
      <trkpt lat="47.13796" lon="6.5086">
        <ele>933.932843</ele>
        <time>2023-01-15T17:02:03.879Z</time>
      </trkpt>
      <trkpt lat="47.13787" lon="6.50862">
        <ele>933.310785</ele>
        <time>2023-01-15T17:02:05.941Z</time>
      </trkpt>
      <trkpt lat="47.13779" lon="6.50838">
        <ele>932.0769</ele>
        <time>2023-01-15T17:02:10.041Z</time>
      </trkpt>
      <trkpt lat="47.1378" lon="6.50782">
        <ele>929.466525</ele>
        <time>2023-01-15T17:02:18.391Z</time>
      </trkpt>
      <trkpt lat="47.13776" lon="6.5076">
        <ele>928.429349</ele>
        <time>2023-01-15T17:02:21.736Z</time>
      </trkpt>
      <trkpt lat="47.13778" lon="6.50729">
        <ele>926.967474</ele>
        <time>2023-01-15T17:02:26.544Z</time>
      </trkpt>
      <trkpt lat="47.13776" lon="6.50709">
        <ele>926.038148</ele>
        <time>2023-01-15T17:02:29.598Z</time>
      </trkpt>
      <trkpt lat="47.13776" lon="6.50705">
        <ele>925.838958</ele>
        <time>2023-01-15T17:02:30.234Z</time>
      </trkpt>
      <trkpt lat="47.1377" lon="6.50687">
        <ele>924.851524</ele>
        <time>2023-01-15T17:02:33.279Z</time>
      </trkpt>
      <trkpt lat="47.13732" lon="6.50613">
        <ele>920.07072</ele>
        <time>2023-01-15T17:02:47.492Z</time>
      </trkpt>
      <trkpt lat="47.1372" lon="6.50598">
        <ele>918.881159</ele>
        <time>2023-01-15T17:02:51.060Z</time>
      </trkpt>
      <trkpt lat="47.13701" lon="6.5056">
        <ele>916.475236</ele>
        <time>2023-01-15T17:02:58.181Z</time>
      </trkpt>
      <trkpt lat="47.13693" lon="6.50537">
        <ele>915.174024</ele>
        <time>2023-01-15T17:03:02.094Z</time>
      </trkpt>
      <trkpt lat="47.1363" lon="6.50434">
        <ele>907.5253</ele>
        <time>2023-01-15T17:03:23.530Z</time>
      </trkpt>
      <trkpt lat="47.13575" lon="6.50394">
        <ele>902.302585</ele>
        <time>2023-01-15T17:03:37.140Z</time>
      </trkpt>
      <trkpt lat="47.1357" lon="6.50409">
        <ele>901.338265</ele>
        <time>2023-01-15T17:03:42.016Z</time>
      </trkpt>
      <trkpt lat="47.1352" lon="6.50364">
        <ele>896.214265</ele>
        <time>2023-01-15T17:04:07.180Z</time>
      </trkpt>
      <trkpt lat="47.13528" lon="6.50315">
        <ele>892.650617</ele>
        <time>2023-01-15T17:04:21.907Z</time>
      </trkpt>
      <trkpt lat="47.1352" lon="6.50274">
        <ele>889.63421</ele>
        <time>2023-01-15T17:04:34.383Z</time>
      </trkpt>
      <trkpt lat="47.13494" lon="6.50218">
        <ele>884.839465</ele>
        <time>2023-01-15T17:04:54.220Z</time>
      </trkpt>
      <trkpt lat="47.13484" lon="6.50184">
        <ele>882.219884</ele>
        <time>2023-01-15T17:05:05.055Z</time>
      </trkpt>
      <trkpt lat="47.1349" lon="6.50137">
        <ele>878.838034</ele>
        <time>2023-01-15T17:05:19.031Z</time>
      </trkpt>
      <trkpt lat="47.13494" lon="6.50092">
        <ele>877.341662</ele>
        <time>2023-01-15T17:05:32.269Z</time>
      </trkpt>
      <trkpt lat="47.13504" lon="6.50047">
        <ele>876.120252</ele>
        <time>2023-01-15T17:05:46.058Z</time>
      </trkpt>
      <trkpt lat="47.13579" lon="6.50074">
        <ele>873.19167</ele>
        <time>2023-01-15T17:06:19.092Z</time>
      </trkpt>
      <trkpt lat="47.13614" lon="6.50145">
        <ele>871.701887</ele>
        <time>2023-01-15T17:06:44.602Z</time>
      </trkpt>
      <trkpt lat="47.13637" lon="6.50192">
        <ele>872.216691</ele>
        <time>2023-01-15T17:07:01.447Z</time>
      </trkpt>
      <trkpt lat="47.13682" lon="6.50242">
        <ele>872.953995</ele>
        <time>2023-01-15T17:07:25.574Z</time>
      </trkpt>
      <trkpt lat="47.13748" lon="6.5033">
        <ele>874.345077</ele>
        <time>2023-01-15T17:08:03.688Z</time>
      </trkpt>
      <trkpt lat="47.13752" lon="6.50325">
        <ele>874.462483</ele>
        <time>2023-01-15T17:08:05.742Z</time>
      </trkpt>
      <trkpt lat="47.13759" lon="6.50336">
        <ele>874.707787</ele>
        <time>2023-01-15T17:08:09.039Z</time>
      </trkpt>
      <trkpt lat="47.13784" lon="6.50403">
        <ele>875.976028</ele>
        <time>2023-01-15T17:08:25.293Z</time>
      </trkpt>
      <trkpt lat="47.13819" lon="6.50518">
        <ele>878.054271</ele>
        <time>2023-01-15T17:08:52.536Z</time>
      </trkpt>
      <trkpt lat="47.13853" lon="6.50611">
        <ele>880.267893</ele>
        <time>2023-01-15T17:09:16.794Z</time>
      </trkpt>
      <trkpt lat="47.13872" lon="6.50707">
        <ele>882.391295</ele>
        <time>2023-01-15T17:09:38.999Z</time>
      </trkpt>
      <trkpt lat="47.13887" lon="6.50807">
        <ele>883.843491</ele>
        <time>2023-01-15T17:10:00.871Z</time>
      </trkpt>
      <trkpt lat="47.13902" lon="6.51001">
        <ele>883.835487</ele>
        <time>2023-01-15T17:10:41.254Z</time>
      </trkpt>
      <trkpt lat="47.13907" lon="6.51103">
        <ele>880.496022</ele>
        <time>2023-01-15T17:10:58.906Z</time>
      </trkpt>
      <trkpt lat="47.13926" lon="6.51171">
        <ele>876.862757</ele>
        <time>2023-01-15T17:11:10.347Z</time>
      </trkpt>
      <trkpt lat="47.13965" lon="6.51187">
        <ele>873.887767</ele>
        <time>2023-01-15T17:11:18.939Z</time>
      </trkpt>
      <trkpt lat="47.14034" lon="6.51098">
        <ele>865.757503</ele>
        <time>2023-01-15T17:11:38.693Z</time>
      </trkpt>
      <trkpt lat="47.14053" lon="6.51083">
        <ele>863.518766</ele>
        <time>2023-01-15T17:11:43.123Z</time>
      </trkpt>
      <trkpt lat="47.14067" lon="6.50896">
        <ele>850.808573</ele>
        <time>2023-01-15T17:12:10.714Z</time>
      </trkpt>
      <trkpt lat="47.14069" lon="6.50706">
        <ele>840.613492</ele>
        <time>2023-01-15T17:12:39.857Z</time>
      </trkpt>
      <trkpt lat="47.14079" lon="6.50585">
        <ele>834.400484</ele>
        <time>2023-01-15T17:12:58.504Z</time>
      </trkpt>
      <trkpt lat="47.14078" lon="6.50513">
        <ele>830.78929</ele>
        <time>2023-01-15T17:13:09.688Z</time>
      </trkpt>
      <trkpt lat="47.14072" lon="6.50496">
        <ele>829.841415</ele>
        <time>2023-01-15T17:13:12.465Z</time>
      </trkpt>
      <trkpt lat="47.14045" lon="6.50367">
        <ele>822.598258</ele>
        <time>2023-01-15T17:13:33.578Z</time>
      </trkpt>
      <trkpt lat="47.14046" lon="6.50335">
        <ele>820.47675</ele>
        <time>2023-01-15T17:13:38.440Z</time>
      </trkpt>
      <trkpt lat="47.14046" lon="6.5032">
        <ele>819.475617</ele>
        <time>2023-01-15T17:13:40.943Z</time>
      </trkpt>
      <trkpt lat="47.1405" lon="6.50307">
        <ele>818.521868</ele>
        <time>2023-01-15T17:13:43.152Z</time>
      </trkpt>
      <trkpt lat="47.14064" lon="6.50312">
        <ele>817.067714</ele>
        <time>2023-01-15T17:13:46.343Z</time>
      </trkpt>
      <trkpt lat="47.14097" lon="6.50284">
        <ele>813.365679</ele>
        <time>2023-01-15T17:13:54.473Z</time>
      </trkpt>
      <trkpt lat="47.1416" lon="6.50227">
        <ele>805.733155</ele>
        <time>2023-01-15T17:14:09.735Z</time>
      </trkpt>
      <trkpt lat="47.14176" lon="6.50193">
        <ele>801.924611</ele>
        <time>2023-01-15T17:14:15.635Z</time>
      </trkpt>
      <trkpt lat="47.1421" lon="6.50131">
        <ele>794.63737</ele>
        <time>2023-01-15T17:14:22.291Z</time>
      </trkpt>
      <trkpt lat="47.14284" lon="6.5004">
        <ele>782.045635</ele>
        <time>2023-01-15T17:14:33.923Z</time>
      </trkpt>
      <trkpt lat="47.1434" lon="6.49995">
        <ele>775.482139</ele>
        <time>2023-01-15T17:14:41.828Z</time>
      </trkpt>
      <trkpt lat="47.14372" lon="6.49978">
        <ele>771.977814</ele>
        <time>2023-01-15T17:14:46.225Z</time>
      </trkpt>
      <trkpt lat="47.14364" lon="6.49939">
        <ele>769.12762</ele>
        <time>2023-01-15T17:14:49.836Z</time>
      </trkpt>
      <trkpt lat="47.14362" lon="6.49909">
        <ele>767.062819</ele>
        <time>2023-01-15T17:14:52.471Z</time>
      </trkpt>
      <trkpt lat="47.14378" lon="6.49907">
        <ele>765.46536</ele>
        <time>2023-01-15T17:14:54.546Z</time>
      </trkpt>
      <trkpt lat="47.14393" lon="6.49902">
        <ele>764.587665</ele>
        <time>2023-01-15T17:14:56.450Z</time>
      </trkpt>
      <trkpt lat="47.1442" lon="6.49893">
        <ele>764.030454</ele>
        <time>2023-01-15T17:15:00.023Z</time>
      </trkpt>
      <trkpt lat="47.14434" lon="6.49889">
        <ele>763.749338</ele>
        <time>2023-01-15T17:15:01.873Z</time>
      </trkpt>
      <trkpt lat="47.14478" lon="6.49875">
        <ele>762.841147</ele>
        <time>2023-01-15T17:15:08.524Z</time>
      </trkpt>
      <trkpt lat="47.14508" lon="6.4986">
        <ele>762.228435</ele>
        <time>2023-01-15T17:15:14.037Z</time>
      </trkpt>
      <trkpt lat="47.14567" lon="6.49828">
        <ele>761.371385</ele>
        <time>2023-01-15T17:15:28.423Z</time>
      </trkpt>
      <trkpt lat="47.14599" lon="6.49817">
        <ele>762.002874</ele>
        <time>2023-01-15T17:15:36.879Z</time>
      </trkpt>
      <trkpt lat="47.14615" lon="6.49815">
        <ele>762.315178</ele>
        <time>2023-01-15T17:15:40.981Z</time>
      </trkpt>
      <trkpt lat="47.14666" lon="6.49823">
        <ele>763.315701</ele>
        <time>2023-01-15T17:15:53.752Z</time>
      </trkpt>
      <trkpt lat="47.14677" lon="6.49826">
        <ele>763.536303</ele>
        <time>2023-01-15T17:15:56.184Z</time>
      </trkpt>
      <trkpt lat="47.14695" lon="6.4983">
        <ele>763.883202</ele>
        <time>2023-01-15T17:16:00.280Z</time>
      </trkpt>
      <trkpt lat="47.1474" lon="6.4984">
        <ele>764.507583</ele>
        <time>2023-01-15T17:16:09.115Z</time>
      </trkpt>
      <trkpt lat="47.14772" lon="6.4984">
        <ele>763.43958</ele>
        <time>2023-01-15T17:16:14.369Z</time>
      </trkpt>
      <trkpt lat="47.148" lon="6.49831">
        <ele>762.52511</ele>
        <time>2023-01-15T17:16:18.466Z</time>
      </trkpt>
      <trkpt lat="47.14816" lon="6.49822">
        <ele>761.984154</ele>
        <time>2023-01-15T17:16:20.852Z</time>
      </trkpt>
      <trkpt lat="47.14819" lon="6.49817">
        <ele>761.814731</ele>
        <time>2023-01-15T17:16:21.547Z</time>
      </trkpt>
      <trkpt lat="47.14832" lon="6.49802">
        <ele>761.289426</ele>
        <time>2023-01-15T17:16:23.870Z</time>
      </trkpt>
      <trkpt lat="47.14843" lon="6.4977">
        <ele>760.49387</ele>
        <time>2023-01-15T17:16:27.099Z</time>
      </trkpt>
      <trkpt lat="47.14857" lon="6.49672">
        <ele>758.271557</ele>
        <time>2023-01-15T17:16:36.082Z</time>
      </trkpt>
      <trkpt lat="47.14881" lon="6.49565">
        <ele>755.668104</ele>
        <time>2023-01-15T17:16:46.752Z</time>
      </trkpt>
      <trkpt lat="47.14905" lon="6.49468">
        <ele>753.300675</ele>
        <time>2023-01-15T17:16:57.330Z</time>
      </trkpt>
      <trkpt lat="47.14928" lon="6.49396">
        <ele>751.792639</ele>
        <time>2023-01-15T17:17:05.624Z</time>
      </trkpt>
      <trkpt lat="47.14938" lon="6.49373">
        <ele>751.333084</ele>
        <time>2023-01-15T17:17:08.394Z</time>
      </trkpt>
      <trkpt lat="47.14946" lon="6.49357">
        <ele>750.987226</ele>
        <time>2023-01-15T17:17:10.454Z</time>
      </trkpt>
      <trkpt lat="47.14953" lon="6.49344">
        <ele>750.705479</ele>
        <time>2023-01-15T17:17:12.108Z</time>
      </trkpt>
      <trkpt lat="47.14969" lon="6.49329">
        <ele>750.230231</ele>
        <time>2023-01-15T17:17:14.932Z</time>
      </trkpt>
      <trkpt lat="47.14993" lon="6.49311">
        <ele>749.558409</ele>
        <time>2023-01-15T17:17:18.806Z</time>
      </trkpt>
      <trkpt lat="47.15042" lon="6.49285">
        <ele>748.224276</ele>
        <time>2023-01-15T17:17:26.485Z</time>
      </trkpt>
      <trkpt lat="47.15099" lon="6.49266">
        <ele>747.619386</ele>
        <time>2023-01-15T17:17:35.403Z</time>
      </trkpt>
      <trkpt lat="47.1511" lon="6.49263">
        <ele>747.501524</ele>
        <time>2023-01-15T17:17:37.218Z</time>
      </trkpt>
      <trkpt lat="47.15137" lon="6.49264">
        <ele>747.228439</ele>
        <time>2023-01-15T17:17:41.607Z</time>
      </trkpt>
      <trkpt lat="47.15156" lon="6.49278">
        <ele>747.005375</ele>
        <time>2023-01-15T17:17:45.296Z</time>
      </trkpt>
      <trkpt lat="47.15169" lon="6.49302">
        <ele>746.79417</ele>
        <time>2023-01-15T17:17:48.952Z</time>
      </trkpt>
      <trkpt lat="47.15185" lon="6.49341">
        <ele>746.472885</ele>
        <time>2023-01-15T17:17:54.939Z</time>
      </trkpt>
      <trkpt lat="47.15244" lon="6.49447">
        <ele>746.181608</ele>
        <time>2023-01-15T17:18:14.333Z</time>
      </trkpt>
      <trkpt lat="47.15257" lon="6.4947">
        <ele>746.137902</ele>
        <time>2023-01-15T17:18:18.399Z</time>
      </trkpt>
      <trkpt lat="47.1528" lon="6.49513">
        <ele>746.057757</ele>
        <time>2023-01-15T17:18:25.112Z</time>
      </trkpt>
      <trkpt lat="47.15296" lon="6.4954">
        <ele>746.005832</ele>
        <time>2023-01-15T17:18:29.030Z</time>
      </trkpt>
      <trkpt lat="47.1531" lon="6.49553">
        <ele>745.957654</ele>
        <time>2023-01-15T17:18:31.615Z</time>
      </trkpt>
      <trkpt lat="47.1534" lon="6.49564">
        <ele>744.671432</ele>
        <time>2023-01-15T17:18:36.234Z</time>
      </trkpt>
      <trkpt lat="47.15352" lon="6.49563">
        <ele>744.163546</ele>
        <time>2023-01-15T17:18:37.977Z</time>
      </trkpt>
      <trkpt lat="47.15368" lon="6.49552">
        <ele>743.441479</ele>
        <time>2023-01-15T17:18:40.413Z</time>
      </trkpt>
      <trkpt lat="47.15381" lon="6.49536">
        <ele>742.730621</ele>
        <time>2023-01-15T17:18:42.683Z</time>
      </trkpt>
      <trkpt lat="47.1539" lon="6.49518">
        <ele>742.100086</ele>
        <time>2023-01-15T17:18:44.781Z</time>
      </trkpt>
      <trkpt lat="47.15394" lon="6.49508">
        <ele>741.758362</ele>
        <time>2023-01-15T17:18:45.934Z</time>
      </trkpt>
      <trkpt lat="47.15413" lon="6.49469">
        <ele>740.43263</ele>
        <time>2023-01-15T17:18:50.159Z</time>
      </trkpt>
      <trkpt lat="47.15463" lon="6.49382">
        <ele>736.854996</ele>
        <time>2023-01-15T17:19:00.402Z</time>
      </trkpt>
      <trkpt lat="47.15468" lon="6.49374">
        <ele>736.440185</ele>
        <time>2023-01-15T17:19:01.376Z</time>
      </trkpt>
      <trkpt lat="47.15509" lon="6.49334">
        <ele>733.89373</ele>
        <time>2023-01-15T17:19:07.766Z</time>
      </trkpt>
      <trkpt lat="47.1555" lon="6.49281">
        <ele>731.010137</ele>
        <time>2023-01-15T17:19:15.110Z</time>
      </trkpt>
      <trkpt lat="47.15559" lon="6.49255">
        <ele>729.937891</ele>
        <time>2023-01-15T17:19:17.793Z</time>
      </trkpt>
      <trkpt lat="47.1558" lon="6.49188">
        <ele>727.084184</ele>
        <time>2023-01-15T17:19:24.483Z</time>
      </trkpt>
      <trkpt lat="47.1562" lon="6.49065">
        <ele>721.525086</ele>
        <time>2023-01-15T17:19:36.593Z</time>
      </trkpt>
      <trkpt lat="47.15623" lon="6.49057">
        <ele>721.172493</ele>
        <time>2023-01-15T17:19:37.335Z</time>
      </trkpt>
      <trkpt lat="47.15648" lon="6.48995">
        <ele>718.235821</ele>
        <time>2023-01-15T17:19:43.574Z</time>
      </trkpt>
      <trkpt lat="47.15686" lon="6.48905">
        <ele>713.05597</ele>
        <time>2023-01-15T17:19:52.532Z</time>
      </trkpt>
      <trkpt lat="47.15692" lon="6.48867">
        <ele>711.120988</ele>
        <time>2023-01-15T17:19:55.826Z</time>
      </trkpt>
      <trkpt lat="47.15701" lon="6.48752">
        <ele>705.389336</ele>
        <time>2023-01-15T17:20:05.734Z</time>
      </trkpt>
      <trkpt lat="47.15699" lon="6.48713">
        <ele>703.785385</ele>
        <time>2023-01-15T17:20:09.037Z</time>
      </trkpt>
      <trkpt lat="47.15673" lon="6.48528">
        <ele>696.20001</ele>
        <time>2023-01-15T17:20:25.635Z</time>
      </trkpt>
      <trkpt lat="47.15671" lon="6.48511">
        <ele>695.539801</ele>
        <time>2023-01-15T17:20:27.049Z</time>
      </trkpt>
      <trkpt lat="47.15673" lon="6.48528">
        <ele>694.879592</ele>
        <time>2023-01-15T17:20:28.744Z</time>
      </trkpt>
      <trkpt lat="47.15699" lon="6.48493">
        <ele>693.694179</ele>
        <time>2023-01-15T17:20:34.021Z</time>
      </trkpt>
      <trkpt lat="47.15721" lon="6.48517">
        <ele>692.873037</ele>
        <time>2023-01-15T17:20:38.089Z</time>
      </trkpt>
      <trkpt lat="47.1575" lon="6.48586">
        <ele>691.189151</ele>
        <time>2023-01-15T17:20:46.810Z</time>
      </trkpt>
      <trkpt lat="47.15783" lon="6.4864">
        <ele>689.697999</ele>
        <time>2023-01-15T17:20:54.561Z</time>
      </trkpt>
      <trkpt lat="47.1582" lon="6.48676">
        <ele>688.61021</ele>
        <time>2023-01-15T17:21:01.891Z</time>
      </trkpt>
      <trkpt lat="47.15827" lon="6.48684">
        <ele>688.421017</ele>
        <time>2023-01-15T17:21:03.407Z</time>
      </trkpt>
      <trkpt lat="47.15854" lon="6.48712">
        <ele>687.75322</ele>
        <time>2023-01-15T17:21:08.701Z</time>
      </trkpt>
      <trkpt lat="47.1588" lon="6.48724">
        <ele>687.186004</ele>
        <time>2023-01-15T17:21:13.148Z</time>
      </trkpt>
      <trkpt lat="47.15982" lon="6.48737">
        <ele>685.579471</ele>
        <time>2023-01-15T17:21:29.798Z</time>
      </trkpt>
      <trkpt lat="47.16042" lon="6.48758">
        <ele>685.972674</ele>
        <time>2023-01-15T17:21:41.307Z</time>
      </trkpt>
      <trkpt lat="47.16106" lon="6.48808">
        <ele>686.440167</ele>
        <time>2023-01-15T17:21:57.392Z</time>
      </trkpt>
      <trkpt lat="47.16122" lon="6.48823">
        <ele>686.558666</ele>
        <time>2023-01-15T17:22:01.859Z</time>
      </trkpt>
      <trkpt lat="47.1614" lon="6.48858">
        <ele>687.464763</ele>
        <time>2023-01-15T17:22:09.499Z</time>
      </trkpt>
      <trkpt lat="47.16151" lon="6.4892">
        <ele>689.1859</ele>
        <time>2023-01-15T17:22:21.019Z</time>
      </trkpt>
      <trkpt lat="47.16139" lon="6.48972">
        <ele>690.669634</ele>
        <time>2023-01-15T17:22:31.398Z</time>
      </trkpt>
      <trkpt lat="47.16125" lon="6.49055">
        <ele>692.962237</ele>
        <time>2023-01-15T17:22:47.684Z</time>
      </trkpt>
      <trkpt lat="47.16095" lon="6.49208">
        <ele>695.623337</ele>
        <time>2023-01-15T17:23:15.674Z</time>
      </trkpt>
      <trkpt lat="47.16111" lon="6.49252">
        <ele>696.339582</ele>
        <time>2023-01-15T17:23:23.470Z</time>
      </trkpt>
      <trkpt lat="47.16144" lon="6.49287">
        <ele>697.213685</ele>
        <time>2023-01-15T17:23:32.009Z</time>
      </trkpt>
      <trkpt lat="47.16164" lon="6.49339">
        <ele>696.910719</ele>
        <time>2023-01-15T17:23:39.525Z</time>
      </trkpt>
      <trkpt lat="47.16191" lon="6.49362">
        <ele>696.074834</ele>
        <time>2023-01-15T17:23:44.879Z</time>
      </trkpt>
      <trkpt lat="47.16247" lon="6.49362">
        <ele>694.541875</ele>
        <time>2023-01-15T17:23:53.922Z</time>
      </trkpt>
      <trkpt lat="47.16302" lon="6.49387">
        <ele>692.972634</ele>
        <time>2023-01-15T17:24:02.632Z</time>
      </trkpt>
      <trkpt lat="47.16354" lon="6.49403">
        <ele>689.921078</ele>
        <time>2023-01-15T17:24:09.800Z</time>
      </trkpt>
      <trkpt lat="47.1643" lon="6.49434">
        <ele>684.743627</ele>
        <time>2023-01-15T17:24:20.531Z</time>
      </trkpt>
      <trkpt lat="47.16442" lon="6.49439">
        <ele>683.991578</ele>
        <time>2023-01-15T17:24:23.228Z</time>
      </trkpt>
      <trkpt lat="47.16455" lon="6.4944">
        <ele>683.081553</ele>
        <time>2023-01-15T17:24:26.363Z</time>
      </trkpt>
      <trkpt lat="47.16475" lon="6.4943">
        <ele>681.746581</ele>
        <time>2023-01-15T17:24:31.233Z</time>
      </trkpt>
      <trkpt lat="47.16477" lon="6.49416">
        <ele>681.109385</ele>
        <time>2023-01-15T17:24:33.325Z</time>
      </trkpt>
      <trkpt lat="47.16473" lon="6.49407">
        <ele>680.551454</ele>
        <time>2023-01-15T17:24:35.098Z</time>
      </trkpt>
      <trkpt lat="47.1645" lon="6.49394">
        <ele>678.528881</ele>
        <time>2023-01-15T17:24:40.681Z</time>
      </trkpt>
      <trkpt lat="47.16436" lon="6.4939">
        <ele>677.391675</ele>
        <time>2023-01-15T17:24:43.791Z</time>
      </trkpt>
      <trkpt lat="47.16423" lon="6.49393">
        <ele>676.317333</ele>
        <time>2023-01-15T17:24:46.657Z</time>
      </trkpt>
      <trkpt lat="47.16379" lon="6.49366">
        <ele>672.440001</ele>
        <time>2023-01-15T17:24:56.851Z</time>
      </trkpt>
      <trkpt lat="47.16362" lon="6.4936">
        <ele>670.977004</ele>
        <time>2023-01-15T17:25:00.841Z</time>
      </trkpt>
      <trkpt lat="47.16338" lon="6.49332">
        <ele>668.489274</ele>
        <time>2023-01-15T17:25:07.535Z</time>
      </trkpt>
      <trkpt lat="47.16322" lon="6.49323">
        <ele>667.113816</ele>
        <time>2023-01-15T17:25:11.310Z</time>
      </trkpt>
      <trkpt lat="47.16312" lon="6.49313">
        <ele>666.159418</ele>
        <time>2023-01-15T17:25:14.230Z</time>
      </trkpt>
      <trkpt lat="47.16291" lon="6.49285">
        <ele>664.652471</ele>
        <time>2023-01-15T17:25:20.674Z</time>
      </trkpt>
      <trkpt lat="47.16258" lon="6.4926">
        <ele>662.704048</ele>
        <time>2023-01-15T17:25:29.307Z</time>
      </trkpt>
      <trkpt lat="47.16249" lon="6.4924">
        <ele>661.860917</ele>
        <time>2023-01-15T17:25:33.193Z</time>
      </trkpt>
      <trkpt lat="47.16246" lon="6.49211">
        <ele>660.807461</ele>
        <time>2023-01-15T17:25:37.859Z</time>
      </trkpt>
      <trkpt lat="47.16241" lon="6.4919">
        <ele>659.989371</ele>
        <time>2023-01-15T17:25:41.726Z</time>
      </trkpt>
      <trkpt lat="47.16238" lon="6.49144">
        <ele>658.340535</ele>
        <time>2023-01-15T17:25:49.561Z</time>
      </trkpt>
      <trkpt lat="47.16233" lon="6.49111">
        <ele>657.115612</ele>
        <time>2023-01-15T17:25:55.195Z</time>
      </trkpt>
      <trkpt lat="47.16247" lon="6.49117">
        <ele>656.53131</ele>
        <time>2023-01-15T17:25:58.837Z</time>
      </trkpt>
      <trkpt lat="47.1627" lon="6.49146">
        <ele>655.626797</ele>
        <time>2023-01-15T17:26:06.762Z</time>
      </trkpt>
      <trkpt lat="47.16318" lon="6.49157">
        <ele>654.174498</ele>
        <time>2023-01-15T17:26:19.668Z</time>
      </trkpt>
      <trkpt lat="47.16351" lon="6.49185">
        <ele>653.045253</ele>
        <time>2023-01-15T17:26:29.692Z</time>
      </trkpt>
      <trkpt lat="47.16387" lon="6.49204">
        <ele>651.895105</ele>
        <time>2023-01-15T17:26:39.826Z</time>
      </trkpt>
      <trkpt lat="47.16439" lon="6.49221">
        <ele>650.616013</ele>
        <time>2023-01-15T17:26:53.743Z</time>
      </trkpt>
      <trkpt lat="47.16474" lon="6.49227">
        <ele>649.865412</ele>
        <time>2023-01-15T17:27:02.776Z</time>
      </trkpt>
      <trkpt lat="47.16512" lon="6.49224">
        <ele>649.038577</ele>
        <time>2023-01-15T17:27:12.701Z</time>
      </trkpt>
      <trkpt lat="47.16538" lon="6.49215">
        <ele>648.475481</ele>
        <time>2023-01-15T17:27:19.754Z</time>
      </trkpt>
      <trkpt lat="47.16577" lon="6.4919">
        <ele>647.548339</ele>
        <time>2023-01-15T17:27:32.590Z</time>
      </trkpt>
      <trkpt lat="47.16643" lon="6.49091">
        <ele>646.936177</ele>
        <time>2023-01-15T17:28:00.988Z</time>
      </trkpt>
      <trkpt lat="47.16697" lon="6.4903">
        <ele>646.503399</ele>
        <time>2023-01-15T17:28:21.255Z</time>
      </trkpt>
      <trkpt lat="47.1673" lon="6.49">
        <ele>645.266066</ele>
        <time>2023-01-15T17:28:31.771Z</time>
      </trkpt>
      <trkpt lat="47.16782" lon="6.48917">
        <ele>641.016269</ele>
        <time>2023-01-15T17:28:50.263Z</time>
      </trkpt>
      <trkpt lat="47.16811" lon="6.4886">
        <ele>638.342467</ele>
        <time>2023-01-15T17:29:01.260Z</time>
      </trkpt>
      <trkpt lat="47.16826" lon="6.48838">
        <ele>637.184108</ele>
        <time>2023-01-15T17:29:05.928Z</time>
      </trkpt>
      <trkpt lat="47.1685" lon="6.48812">
        <ele>635.433124</ele>
        <time>2023-01-15T17:29:12.498Z</time>
      </trkpt>
      <trkpt lat="47.1687" lon="6.48815">
        <ele>634.143339</ele>
        <time>2023-01-15T17:29:17.057Z</time>
      </trkpt>
      <trkpt lat="47.16921" lon="6.48836">
        <ele>630.873465</ele>
        <time>2023-01-15T17:29:28.847Z</time>
      </trkpt>
      <trkpt lat="47.16964" lon="6.48843">
        <ele>628.188797</ele>
        <time>2023-01-15T17:29:38.836Z</time>
      </trkpt>
      <trkpt lat="47.16996" lon="6.48861">
        <ele>626.105003</ele>
        <time>2023-01-15T17:29:47.304Z</time>
      </trkpt>
      <trkpt lat="47.17047" lon="6.48881">
        <ele>624.767291</ele>
        <time>2023-01-15T17:30:01.809Z</time>
      </trkpt>
      <trkpt lat="47.17083" lon="6.48892">
        <ele>624.287989</ele>
        <time>2023-01-15T17:30:12.226Z</time>
      </trkpt>
      <trkpt lat="47.17113" lon="6.48892">
        <ele>623.899684</ele>
        <time>2023-01-15T17:30:20.889Z</time>
      </trkpt>
      <trkpt lat="47.17131" lon="6.48886">
        <ele>623.661053</ele>
        <time>2023-01-15T17:30:26.366Z</time>
      </trkpt>
      <trkpt lat="47.17155" lon="6.48884">
        <ele>623.350445</ele>
        <time>2023-01-15T17:30:33.439Z</time>
      </trkpt>
      <trkpt lat="47.17197" lon="6.48861">
        <ele>622.890442</ele>
        <time>2023-01-15T17:30:47.000Z</time>
      </trkpt>
      <trkpt lat="47.17212" lon="6.48855">
        <ele>622.831259</ele>
        <time>2023-01-15T17:30:51.554Z</time>
      </trkpt>
      <trkpt lat="47.17231" lon="6.48855">
        <ele>622.75644</ele>
        <time>2023-01-15T17:30:57.436Z</time>
      </trkpt>
      <trkpt lat="47.17259" lon="6.48844">
        <ele>622.645855</ele>
        <time>2023-01-15T17:31:05.956Z</time>
      </trkpt>
      <trkpt lat="47.17278" lon="6.48845">
        <ele>622.572136</ele>
        <time>2023-01-15T17:31:11.648Z</time>
      </trkpt>
      <trkpt lat="47.1729" lon="6.48852">
        <ele>622.522635</ele>
        <time>2023-01-15T17:31:15.486Z</time>
      </trkpt>
      <trkpt lat="47.17306" lon="6.48853">
        <ele>622.459758</ele>
        <time>2023-01-15T17:31:20.455Z</time>
      </trkpt>
      <trkpt lat="47.17319" lon="6.48867">
        <ele>622.398992</ele>
        <time>2023-01-15T17:31:25.180Z</time>
      </trkpt>
      <trkpt lat="47.17354" lon="6.48878">
        <ele>622.258967</ele>
        <time>2023-01-15T17:31:36.193Z</time>
      </trkpt>
      <trkpt lat="47.17379" lon="6.4887">
        <ele>621.038514</ele>
        <time>2023-01-15T17:31:44.040Z</time>
      </trkpt>
      <trkpt lat="47.17392" lon="6.48862">
        <ele>620.306364</ele>
        <time>2023-01-15T17:31:48.248Z</time>
      </trkpt>
      <trkpt lat="47.17402" lon="6.48856">
        <ele>619.7299</ele>
        <time>2023-01-15T17:31:50.680Z</time>
      </trkpt>
      <trkpt lat="47.17412" lon="6.48843">
        <ele>619.057887</ele>
        <time>2023-01-15T17:31:53.580Z</time>
      </trkpt>
      <trkpt lat="47.17439" lon="6.48822">
        <ele>617.480259</ele>
        <time>2023-01-15T17:32:00.605Z</time>
      </trkpt>
      <trkpt lat="47.17461" lon="6.48798">
        <ele>616.06557</ele>
        <time>2023-01-15T17:32:07.653Z</time>
      </trkpt>
      <trkpt lat="47.17475" lon="6.48775">
        <ele>614.987678</ele>
        <time>2023-01-15T17:32:12.660Z</time>
      </trkpt>
      <trkpt lat="47.17487" lon="6.48727">
        <ele>613.175205</ele>
        <time>2023-01-15T17:32:20.227Z</time>
      </trkpt>
      <trkpt lat="47.17492" lon="6.48723">
        <ele>612.833108</ele>
        <time>2023-01-15T17:32:21.984Z</time>
      </trkpt>
      <trkpt lat="47.17497" lon="6.48723">
        <ele>612.358947</ele>
        <time>2023-01-15T17:32:23.125Z</time>
      </trkpt>
      <trkpt lat="47.17507" lon="6.48738">
        <ele>611.00105</ele>
        <time>2023-01-15T17:32:25.846Z</time>
      </trkpt>
      <trkpt lat="47.17512" lon="6.48759">
        <ele>609.51878</ele>
        <time>2023-01-15T17:32:30.484Z</time>
      </trkpt>
      <trkpt lat="47.17515" lon="6.4885">
        <ele>603.562057</ele>
        <time>2023-01-15T17:32:43.310Z</time>
      </trkpt>
      <trkpt lat="47.17517" lon="6.48873">
        <ele>602.040078</ele>
        <time>2023-01-15T17:32:47.417Z</time>
      </trkpt>
      <trkpt lat="47.17521" lon="6.48885">
        <ele>601.197321</ele>
        <time>2023-01-15T17:32:49.119Z</time>
      </trkpt>
      <trkpt lat="47.17526" lon="6.48891">
        <ele>600.54882</ele>
        <time>2023-01-15T17:32:50.444Z</time>
      </trkpt>
      <trkpt lat="47.17533" lon="6.48913">
        <ele>598.942343</ele>
        <time>2023-01-15T17:32:55.088Z</time>
      </trkpt>
      <trkpt lat="47.17532" lon="6.48969">
        <ele>595.514706</ele>
        <time>2023-01-15T17:33:03.075Z</time>
      </trkpt>
      <trkpt lat="47.17526" lon="6.49014">
        <ele>594.974885</ele>
        <time>2023-01-15T17:33:10.692Z</time>
      </trkpt>
      <trkpt lat="47.17526" lon="6.49048">
        <ele>594.588934</ele>
        <time>2023-01-15T17:33:15.862Z</time>
      </trkpt>
      <trkpt lat="47.1753" lon="6.49065">
        <ele>594.374774</ele>
        <time>2023-01-15T17:33:19.635Z</time>
      </trkpt>
      <trkpt lat="47.17542" lon="6.49098">
        <ele>593.941314</ele>
        <time>2023-01-15T17:33:25.603Z</time>
      </trkpt>
      <trkpt lat="47.17563" lon="6.49129">
        <ele>593.437464</ele>
        <time>2023-01-15T17:33:34.825Z</time>
      </trkpt>
      <trkpt lat="47.17566" lon="6.49143">
        <ele>593.260256</ele>
        <time>2023-01-15T17:33:38.142Z</time>
      </trkpt>
      <trkpt lat="47.1756" lon="6.49187">
        <ele>592.735688</ele>
        <time>2023-01-15T17:33:47.942Z</time>
      </trkpt>
      <trkpt lat="47.1755" lon="6.49227">
        <ele>593.171422</ele>
        <time>2023-01-15T17:33:58.141Z</time>
      </trkpt>
      <trkpt lat="47.17549" lon="6.49273">
        <ele>594.74616</ele>
        <time>2023-01-15T17:34:08.739Z</time>
      </trkpt>
      <trkpt lat="47.17533" lon="6.49282">
        <ele>595.597827</ele>
        <time>2023-01-15T17:34:14.874Z</time>
      </trkpt>
      <trkpt lat="47.17517" lon="6.49283">
        <ele>596.372267</ele>
        <time>2023-01-15T17:34:20.045Z</time>
      </trkpt>
      <trkpt lat="47.17501" lon="6.4929">
        <ele>597.196215</ele>
        <time>2023-01-15T17:34:26.930Z</time>
      </trkpt>
      <trkpt lat="47.17485" lon="6.49328">
        <ele>598.688596</ele>
        <time>2023-01-15T17:34:37.804Z</time>
      </trkpt>
      <trkpt lat="47.1747" lon="6.49348">
        <ele>599.696826</ele>
        <time>2023-01-15T17:34:44.313Z</time>
      </trkpt>
      <trkpt lat="47.17459" lon="6.49357">
        <ele>600.35083</ele>
        <time>2023-01-15T17:34:50.417Z</time>
      </trkpt>
      <trkpt lat="47.1748" lon="6.49398">
        <ele>601.727711</ele>
        <time>2023-01-15T17:35:03.017Z</time>
      </trkpt>
      <trkpt lat="47.17487" lon="6.49417">
        <ele>602.077587</ele>
        <time>2023-01-15T17:35:07.982Z</time>
      </trkpt>
      <trkpt lat="47.17503" lon="6.49497">
        <ele>603.405319</ele>
        <time>2023-01-15T17:35:27.345Z</time>
      </trkpt>
      <trkpt lat="47.17502" lon="6.49529">
        <ele>603.915333</ele>
        <time>2023-01-15T17:35:33.931Z</time>
      </trkpt>
      <trkpt lat="47.17495" lon="6.49603">
        <ele>605.10648</ele>
        <time>2023-01-15T17:35:49.480Z</time>
      </trkpt>
      <trkpt lat="47.17505" lon="6.49678">
        <ele>604.856089</ele>
        <time>2023-01-15T17:36:04.891Z</time>
      </trkpt>
      <trkpt lat="47.17514" lon="6.4971">
        <ele>604.248412</ele>
        <time>2023-01-15T17:36:11.585Z</time>
      </trkpt>
      <trkpt lat="47.1752" lon="6.49757">
        <ele>603.422696</ele>
        <time>2023-01-15T17:36:20.332Z</time>
      </trkpt>
      <trkpt lat="47.17524" lon="6.49814">
        <ele>602.428229</ele>
        <time>2023-01-15T17:36:30.370Z</time>
      </trkpt>
      <trkpt lat="47.17522" lon="6.49887">
        <ele>601.153018</ele>
        <time>2023-01-15T17:36:42.760Z</time>
      </trkpt>
      <trkpt lat="47.17526" lon="6.49996">
        <ele>598.156812</ele>
        <time>2023-01-15T17:37:00.770Z</time>
      </trkpt>
      <trkpt lat="47.17521" lon="6.50102">
        <ele>595.133625</ele>
        <time>2023-01-15T17:37:18.596Z</time>
      </trkpt>
      <trkpt lat="47.17518" lon="6.50122">
        <ele>594.541371</ele>
        <time>2023-01-15T17:37:22.114Z</time>
      </trkpt>
      <trkpt lat="47.17498" lon="6.50164">
        <ele>593.39248</ele>
        <time>2023-01-15T17:37:30.878Z</time>
      </trkpt>
      <trkpt lat="47.17502" lon="6.50198">
        <ele>593.132839</ele>
        <time>2023-01-15T17:37:36.764Z</time>
      </trkpt>
      <trkpt lat="47.17499" lon="6.50216">
        <ele>592.985346</ele>
        <time>2023-01-15T17:37:40.194Z</time>
      </trkpt>
      <trkpt lat="47.17491" lon="6.50232">
        <ele>592.831641</ele>
        <time>2023-01-15T17:37:43.819Z</time>
      </trkpt>
      <trkpt lat="47.17426" lon="6.50248">
        <ele>592.086805</ele>
        <time>2023-01-15T17:38:03.186Z</time>
      </trkpt>
      <trkpt lat="47.17346" lon="6.50253">
        <ele>591.938843</ele>
        <time>2023-01-15T17:38:27.902Z</time>
      </trkpt>
      <trkpt lat="47.17295" lon="6.5027">
        <ele>592.851036</ele>
        <time>2023-01-15T17:38:43.864Z</time>
      </trkpt>
      <trkpt lat="47.17283" lon="6.50281">
        <ele>593.108948</ele>
        <time>2023-01-15T17:38:48.626Z</time>
      </trkpt>
      <trkpt lat="47.17277" lon="6.50296">
        <ele>593.305375</ele>
        <time>2023-01-15T17:38:52.033Z</time>
      </trkpt>
      <trkpt lat="47.17263" lon="6.50365">
        <ele>594.172718</ele>
        <time>2023-01-15T17:39:07.359Z</time>
      </trkpt>
      <trkpt lat="47.17262" lon="6.50427">
        <ele>594.970359</ele>
        <time>2023-01-15T17:39:20.849Z</time>
      </trkpt>
      <trkpt lat="47.17258" lon="6.50468">
        <ele>595.547984</ele>
        <time>2023-01-15T17:39:29.590Z</time>
      </trkpt>
      <trkpt lat="47.17242" lon="6.50544">
        <ele>596.675213</ele>
        <time>2023-01-15T17:39:46.616Z</time>
      </trkpt>
      <trkpt lat="47.17227" lon="6.50593">
        <ele>597.42938</ele>
        <time>2023-01-15T17:39:58.165Z</time>
      </trkpt>
      <trkpt lat="47.1722" lon="6.50638">
        <ele>598.082564</ele>
        <time>2023-01-15T17:40:08.023Z</time>
      </trkpt>
      <trkpt lat="47.17214" lon="6.5066">
        <ele>598.400472</ele>
        <time>2023-01-15T17:40:13.168Z</time>
      </trkpt>
      <trkpt lat="47.17155" lon="6.50741">
        <ele>598.987277</ele>
        <time>2023-01-15T17:40:37.732Z</time>
      </trkpt>
      <trkpt lat="47.17144" lon="6.50773">
        <ele>599.165577</ele>
        <time>2023-01-15T17:40:45.339Z</time>
      </trkpt>
      <trkpt lat="47.17184" lon="6.50738">
        <ele>599.50741</ele>
        <time>2023-01-15T17:40:59.323Z</time>
      </trkpt>
      <trkpt lat="47.172" lon="6.50734">
        <ele>599.624052</ele>
        <time>2023-01-15T17:41:04.200Z</time>
      </trkpt>
      <trkpt lat="47.17269" lon="6.50747">
        <ele>599.59979</ele>
        <time>2023-01-15T17:41:24.960Z</time>
      </trkpt>
      <trkpt lat="47.17319" lon="6.50767">
        <ele>599.508346</ele>
        <time>2023-01-15T17:41:40.024Z</time>
      </trkpt>
      <trkpt lat="47.17468" lon="6.50973">
        <ele>599.545802</ele>
        <time>2023-01-15T17:42:42.054Z</time>
      </trkpt>
      <trkpt lat="47.17502" lon="6.51028">
        <ele>599.529336</ele>
        <time>2023-01-15T17:42:56.988Z</time>
      </trkpt>
      <trkpt lat="47.17578" lon="6.51068">
        <ele>598.626633</ele>
        <time>2023-01-15T17:43:20.287Z</time>
      </trkpt>
      <trkpt lat="47.17628" lon="6.51085">
        <ele>598.042822</ele>
        <time>2023-01-15T17:43:35.072Z</time>
      </trkpt>
      <trkpt lat="47.17659" lon="6.51103">
        <ele>597.672493</ele>
        <time>2023-01-15T17:43:44.301Z</time>
      </trkpt>
      <trkpt lat="47.17678" lon="6.51125">
        <ele>597.542544</ele>
        <time>2023-01-15T17:43:51.096Z</time>
      </trkpt>
      <trkpt lat="47.17699" lon="6.51159">
        <ele>597.478534</ele>
        <time>2023-01-15T17:44:00.011Z</time>
      </trkpt>
      <trkpt lat="47.17751" lon="6.51272">
        <ele>597.288012</ele>
        <time>2023-01-15T17:44:27.779Z</time>
      </trkpt>
      <trkpt lat="47.17771" lon="6.51325">
        <ele>597.213633</ele>
        <time>2023-01-15T17:44:40.375Z</time>
      </trkpt>
      <trkpt lat="47.17799" lon="6.51446">
        <ele>598.016367</ele>
        <time>2023-01-15T17:45:07.073Z</time>
      </trkpt>
      <trkpt lat="47.17842" lon="6.51557">
        <ele>598.82754</ele>
        <time>2023-01-15T17:45:33.851Z</time>
      </trkpt>
      <trkpt lat="47.17863" lon="6.51589">
        <ele>598.910024</ele>
        <time>2023-01-15T17:45:43.167Z</time>
      </trkpt>
      <trkpt lat="47.17881" lon="6.51599">
        <ele>598.937781</ele>
        <time>2023-01-15T17:45:49.045Z</time>
      </trkpt>
      <trkpt lat="47.17903" lon="6.51619">
        <ele>598.973836</ele>
        <time>2023-01-15T17:45:56.670Z</time>
      </trkpt>
      <trkpt lat="47.17927" lon="6.51651">
        <ele>599.021715</ele>
        <time>2023-01-15T17:46:06.703Z</time>
      </trkpt>
      <trkpt lat="47.17952" lon="6.51691">
        <ele>599.074775</ele>
        <time>2023-01-15T17:46:17.645Z</time>
      </trkpt>
      <trkpt lat="47.17996" lon="6.51744">
        <ele>598.60455</ele>
        <time>2023-01-15T17:46:34.708Z</time>
      </trkpt>
      <trkpt lat="47.18009" lon="6.51753">
        <ele>598.154232</ele>
        <time>2023-01-15T17:46:38.947Z</time>
      </trkpt>
      <trkpt lat="47.18125" lon="6.51799">
        <ele>594.361121</ele>
        <time>2023-01-15T17:47:10.618Z</time>
      </trkpt>
      <trkpt lat="47.18157" lon="6.51802">
        <ele>593.202061</ele>
        <time>2023-01-15T17:47:18.076Z</time>
      </trkpt>
      <trkpt lat="47.18188" lon="6.51796">
        <ele>590.561735</ele>
        <time>2023-01-15T17:47:25.096Z</time>
      </trkpt>
      <trkpt lat="47.18225" lon="6.51784">
        <ele>587.330192</ele>
        <time>2023-01-15T17:47:33.518Z</time>
      </trkpt>
      <trkpt lat="47.18308" lon="6.51742">
        <ele>579.965555</ele>
        <time>2023-01-15T17:47:52.404Z</time>
      </trkpt>
      <trkpt lat="47.18382" lon="6.51719">
        <ele>574.841166</ele>
        <time>2023-01-15T17:48:08.963Z</time>
      </trkpt>
      <trkpt lat="47.18421" lon="6.517">
        <ele>572.302059</ele>
        <time>2023-01-15T17:48:18.228Z</time>
      </trkpt>
      <trkpt lat="47.1845" lon="6.51691">
        <ele>570.48098</ele>
        <time>2023-01-15T17:48:25.136Z</time>
      </trkpt>
      <trkpt lat="47.18498" lon="6.51668">
        <ele>567.340293</ele>
        <time>2023-01-15T17:48:37.968Z</time>
      </trkpt>
      <trkpt lat="47.18535" lon="6.51658">
        <ele>567.093464</ele>
        <time>2023-01-15T17:48:48.481Z</time>
      </trkpt>
      <trkpt lat="47.18564" lon="6.51663">
        <ele>567.043204</ele>
        <time>2023-01-15T17:48:57.438Z</time>
      </trkpt>
      <trkpt lat="47.18618" lon="6.51713">
        <ele>566.936311</ele>
        <time>2023-01-15T17:49:16.683Z</time>
      </trkpt>
      <trkpt lat="47.18671" lon="6.51804">
        <ele>567.416246</ele>
        <time>2023-01-15T17:49:41.623Z</time>
      </trkpt>
      <trkpt lat="47.18681" lon="6.5183">
        <ele>567.812286</ele>
        <time>2023-01-15T17:49:48.013Z</time>
      </trkpt>
      <trkpt lat="47.18684" lon="6.51857">
        <ele>568.180204</ele>
        <time>2023-01-15T17:49:53.990Z</time>
      </trkpt>
      <trkpt lat="47.1868" lon="6.5191">
        <ele>568.890717</ele>
        <time>2023-01-15T17:50:05.477Z</time>
      </trkpt>
      <trkpt lat="47.1868" lon="6.51935">
        <ele>569.225138</ele>
        <time>2023-01-15T17:50:10.867Z</time>
      </trkpt>
      <trkpt lat="47.18702" lon="6.52003">
        <ele>570.225984</ele>
        <time>2023-01-15T17:50:26.877Z</time>
      </trkpt>
      <trkpt lat="47.18709" lon="6.52038">
        <ele>570.639038</ele>
        <time>2023-01-15T17:50:34.572Z</time>
      </trkpt>
      <trkpt lat="47.18712" lon="6.52089">
        <ele>571.176373</ele>
        <time>2023-01-15T17:50:45.337Z</time>
      </trkpt>
      <trkpt lat="47.18712" lon="6.52188">
        <ele>572.232339</ele>
        <time>2023-01-15T17:51:06.499Z</time>
      </trkpt>
      <trkpt lat="47.18706" lon="6.52256">
        <ele>572.9542</ele>
        <time>2023-01-15T17:51:20.747Z</time>
      </trkpt>
      <trkpt lat="47.18686" lon="6.52335">
        <ele>574.049687</ele>
        <time>2023-01-15T17:51:38.190Z</time>
      </trkpt>
      <trkpt lat="47.18677" lon="6.52576">
        <ele>578.547735</ele>
        <time>2023-01-15T17:52:29.993Z</time>
      </trkpt>
      <trkpt lat="47.18651" lon="6.52631">
        <ele>581.360699</ele>
        <time>2023-01-15T17:52:45.627Z</time>
      </trkpt>
      <trkpt lat="47.18625" lon="6.52645">
        <ele>583.054259</ele>
        <time>2023-01-15T17:52:55.551Z</time>
      </trkpt>
      <trkpt lat="47.18604" lon="6.52653">
        <ele>584.411805</ele>
        <time>2023-01-15T17:53:04.613Z</time>
      </trkpt>
      <trkpt lat="47.18599" lon="6.52691">
        <ele>586.024021</ele>
        <time>2023-01-15T17:53:15.963Z</time>
      </trkpt>
      <trkpt lat="47.18621" lon="6.52724">
        <ele>587.936709</ele>
        <time>2023-01-15T17:53:30.217Z</time>
      </trkpt>
      <trkpt lat="47.18637" lon="6.52753">
        <ele>590.216245</ele>
        <time>2023-01-15T17:53:42.475Z</time>
      </trkpt>
      <trkpt lat="47.18643" lon="6.528">
        <ele>593.08672</ele>
        <time>2023-01-15T17:53:57.296Z</time>
      </trkpt>
      <trkpt lat="47.18652" lon="6.52929">
        <ele>600.822446</ele>
        <time>2023-01-15T17:54:36.666Z</time>
      </trkpt>
      <trkpt lat="47.18675" lon="6.53074">
        <ele>609.085866</ele>
        <time>2023-01-15T17:55:16.983Z</time>
      </trkpt>
      <trkpt lat="47.1871" lon="6.53205">
        <ele>616.48605</ele>
        <time>2023-01-15T17:55:57.126Z</time>
      </trkpt>
      <trkpt lat="47.18703" lon="6.53269">
        <ele>620.092948</ele>
        <time>2023-01-15T17:56:15.141Z</time>
      </trkpt>
      <trkpt lat="47.18667" lon="6.53303">
        <ele>623.706442</ele>
        <time>2023-01-15T17:56:33.121Z</time>
      </trkpt>
      <trkpt lat="47.18609" lon="6.5333">
        <ele>628.876816</ele>
        <time>2023-01-15T17:56:58.310Z</time>
      </trkpt>
      <trkpt lat="47.18603" lon="6.53356">
        <ele>630.45144</ele>
        <time>2023-01-15T17:57:07.583Z</time>
      </trkpt>
      <trkpt lat="47.18636" lon="6.53388">
        <ele>633.705713</ele>
        <time>2023-01-15T17:57:26.437Z</time>
      </trkpt>
      <trkpt lat="47.18665" lon="6.53448">
        <ele>637.679734</ele>
        <time>2023-01-15T17:57:47.971Z</time>
      </trkpt>
      <trkpt lat="47.18697" lon="6.53546">
        <ele>643.578924</ele>
        <time>2023-01-15T17:58:17.132Z</time>
      </trkpt>
      <trkpt lat="47.18719" lon="6.5366">
        <ele>650.218043</ele>
        <time>2023-01-15T17:58:49.433Z</time>
      </trkpt>
      <trkpt lat="47.18724" lon="6.53751">
        <ele>655.554058</ele>
        <time>2023-01-15T17:59:17.383Z</time>
      </trkpt>
      <trkpt lat="47.187" lon="6.53822">
        <ele>660.190545</ele>
        <time>2023-01-15T17:59:42.264Z</time>
      </trkpt>
      <trkpt lat="47.18691" lon="6.5392">
        <ele>665.162014</ele>
        <time>2023-01-15T18:00:10.921Z</time>
      </trkpt>
      <trkpt lat="47.18707" lon="6.53976">
        <ele>667.793673</ele>
        <time>2023-01-15T18:00:26.933Z</time>
      </trkpt>
      <trkpt lat="47.18739" lon="6.54024">
        <ele>670.746121</ele>
        <time>2023-01-15T18:00:44.068Z</time>
      </trkpt>
      <trkpt lat="47.18771" lon="6.5404">
        <ele>672.90092</ele>
        <time>2023-01-15T18:00:56.183Z</time>
      </trkpt>
      <trkpt lat="47.18803" lon="6.54042">
        <ele>674.639821</ele>
        <time>2023-01-15T18:01:07.320Z</time>
      </trkpt>
      <trkpt lat="47.18848" lon="6.54077">
        <ele>676.518113</ele>
        <time>2023-01-15T18:01:24.227Z</time>
      </trkpt>
      <trkpt lat="47.1888" lon="6.54109">
        <ele>677.940157</ele>
        <time>2023-01-15T18:01:36.582Z</time>
      </trkpt>
      <trkpt lat="47.18949" lon="6.54141">
        <ele>680.610553</ele>
        <time>2023-01-15T18:01:59.804Z</time>
      </trkpt>
      <trkpt lat="47.19023" lon="6.54203">
        <ele>684.049501</ele>
        <time>2023-01-15T18:02:29.474Z</time>
      </trkpt>
      <trkpt lat="47.19069" lon="6.54217">
        <ele>685.992288</ele>
        <time>2023-01-15T18:02:45.799Z</time>
      </trkpt>
      <trkpt lat="47.19083" lon="6.54237">
        <ele>686.786749</ele>
        <time>2023-01-15T18:02:52.230Z</time>
      </trkpt>
      <trkpt lat="47.19097" lon="6.54258">
        <ele>687.618306</ele>
        <time>2023-01-15T18:02:58.899Z</time>
      </trkpt>
      <trkpt lat="47.19194" lon="6.5432">
        <ele>690.186519</ele>
        <time>2023-01-15T18:03:32.386Z</time>
      </trkpt>
      <trkpt lat="47.19257" lon="6.54377">
        <ele>691.80444</ele>
        <time>2023-01-15T18:03:55.586Z</time>
      </trkpt>
      <trkpt lat="47.19314" lon="6.54441">
        <ele>692.889456</ele>
        <time>2023-01-15T18:04:17.595Z</time>
      </trkpt>
      <trkpt lat="47.19347" lon="6.54498">
        <ele>693.565255</ele>
        <time>2023-01-15T18:04:32.958Z</time>
      </trkpt>
      <trkpt lat="47.19378" lon="6.54561">
        <ele>694.26194</ele>
        <time>2023-01-15T18:04:49.328Z</time>
      </trkpt>
      <trkpt lat="47.19425" lon="6.54634">
        <ele>696.473677</ele>
        <time>2023-01-15T18:05:10.925Z</time>
      </trkpt>
      <trkpt lat="47.19421" lon="6.54654">
        <ele>697.04203</ele>
        <time>2023-01-15T18:05:15.293Z</time>
      </trkpt>
      <trkpt lat="47.1938" lon="6.54631">
        <ele>698.832551</ele>
        <time>2023-01-15T18:05:27.390Z</time>
      </trkpt>
      <trkpt lat="47.1935" lon="6.54608">
        <ele>700.178887</ele>
        <time>2023-01-15T18:05:36.700Z</time>
      </trkpt>
      <trkpt lat="47.19328" lon="6.54571">
        <ele>701.52463</ele>
        <time>2023-01-15T18:05:46.525Z</time>
      </trkpt>
      <trkpt lat="47.1931" lon="6.5453">
        <ele>703.260332</ele>
        <time>2023-01-15T18:05:56.720Z</time>
      </trkpt>
      <trkpt lat="47.1929" lon="6.54495">
        <ele>704.982218</ele>
        <time>2023-01-15T18:06:07.416Z</time>
      </trkpt>
      <trkpt lat="47.19239" lon="6.54448">
        <ele>708.306432</ele>
        <time>2023-01-15T18:06:25.289Z</time>
      </trkpt>
      <trkpt lat="47.19175" lon="6.5441">
        <ele>712.009971</ele>
        <time>2023-01-15T18:06:44.946Z</time>
      </trkpt>
      <trkpt lat="47.19138" lon="6.54398">
        <ele>713.413924</ele>
        <time>2023-01-15T18:06:55.096Z</time>
      </trkpt>
      <trkpt lat="47.1909" lon="6.54354">
        <ele>715.505325</ele>
        <time>2023-01-15T18:07:09.255Z</time>
      </trkpt>
      <trkpt lat="47.19078" lon="6.54347">
        <ele>716.010243</ele>
        <time>2023-01-15T18:07:12.793Z</time>
      </trkpt>
      <trkpt lat="47.19068" lon="6.54362">
        <ele>716.536545</ele>
        <time>2023-01-15T18:07:16.323Z</time>
      </trkpt>
      <trkpt lat="47.19109" lon="6.54482">
        <ele>720.09666</ele>
        <time>2023-01-15T18:07:39.890Z</time>
      </trkpt>
      <trkpt lat="47.19116" lon="6.54515">
        <ele>721.059147</ele>
        <time>2023-01-15T18:07:46.020Z</time>
      </trkpt>
      <trkpt lat="47.19117" lon="6.54621">
        <ele>723.999764</ele>
        <time>2023-01-15T18:08:05.393Z</time>
      </trkpt>
      <trkpt lat="47.19118" lon="6.54639">
        <ele>724.499194</ele>
        <time>2023-01-15T18:08:08.790Z</time>
      </trkpt>
      <trkpt lat="47.19124" lon="6.54667">
        <ele>725.33774</ele>
        <time>2023-01-15T18:08:14.305Z</time>
      </trkpt>
      <trkpt lat="47.19175" lon="6.54785">
        <ele>728.921103</ele>
        <time>2023-01-15T18:08:40.839Z</time>
      </trkpt>
      <trkpt lat="47.19195" lon="6.54877">
        <ele>731.346655</ele>
        <time>2023-01-15T18:08:57.246Z</time>
      </trkpt>
      <trkpt lat="47.19197" lon="6.5489">
        <ele>731.692543</ele>
        <time>2023-01-15T18:08:59.425Z</time>
      </trkpt>
      <trkpt lat="47.19195" lon="6.54902">
        <ele>731.997158</ele>
        <time>2023-01-15T18:09:01.320Z</time>
      </trkpt>
      <trkpt lat="47.1919" lon="6.54909">
        <ele>732.259896</ele>
        <time>2023-01-15T18:09:02.956Z</time>
      </trkpt>
      <trkpt lat="47.19185" lon="6.54911">
        <ele>732.464275</ele>
        <time>2023-01-15T18:09:04.637Z</time>
      </trkpt>
      <trkpt lat="47.19178" lon="6.54906">
        <ele>732.664988</ele>
        <time>2023-01-15T18:09:06.467Z</time>
      </trkpt>
      <trkpt lat="47.19152" lon="6.54863">
        <ele>733.686919</ele>
        <time>2023-01-15T18:09:15.733Z</time>
      </trkpt>
      <trkpt lat="47.19116" lon="6.54832">
        <ele>734.799648</ele>
        <time>2023-01-15T18:09:25.879Z</time>
      </trkpt>
      <trkpt lat="47.19037" lon="6.54738">
        <ele>737.498732</ele>
        <time>2023-01-15T18:09:50.720Z</time>
      </trkpt>
      <trkpt lat="47.18946" lon="6.54613">
        <ele>741.065916</ele>
        <time>2023-01-15T18:10:21.016Z</time>
      </trkpt>
      <trkpt lat="47.18924" lon="6.54575">
        <ele>742.055888</ele>
        <time>2023-01-15T18:10:29.553Z</time>
      </trkpt>
      <trkpt lat="47.18911" lon="6.54559">
        <ele>742.697004</ele>
        <time>2023-01-15T18:10:34.067Z</time>
      </trkpt>
      <trkpt lat="47.18898" lon="6.54549">
        <ele>743.450068</ele>
        <time>2023-01-15T18:10:37.581Z</time>
      </trkpt>
      <trkpt lat="47.1885" lon="6.5453">
        <ele>746.063176</ele>
        <time>2023-01-15T18:10:50.318Z</time>
      </trkpt>
      <trkpt lat="47.18823" lon="6.54528">
        <ele>747.483458</ele>
        <time>2023-01-15T18:10:57.838Z</time>
      </trkpt>
      <trkpt lat="47.18791" lon="6.54516">
        <ele>749.257602</ele>
        <time>2023-01-15T18:11:08.280Z</time>
      </trkpt>
      <trkpt lat="47.18772" lon="6.54524">
        <ele>750.268778</ele>
        <time>2023-01-15T18:11:14.728Z</time>
      </trkpt>
      <trkpt lat="47.18747" lon="6.54546">
        <ele>751.80252</ele>
        <time>2023-01-15T18:11:24.580Z</time>
      </trkpt>
      <trkpt lat="47.18724" lon="6.5456">
        <ele>753.837504</ele>
        <time>2023-01-15T18:11:33.244Z</time>
      </trkpt>
      <trkpt lat="47.18709" lon="6.54564">
        <ele>755.12449</ele>
        <time>2023-01-15T18:11:38.468Z</time>
      </trkpt>
      <trkpt lat="47.18651" lon="6.54565">
        <ele>759.85989</ele>
        <time>2023-01-15T18:11:59.601Z</time>
      </trkpt>
      <trkpt lat="47.1863" lon="6.54523">
        <ele>762.729731</ele>
        <time>2023-01-15T18:12:12.735Z</time>
      </trkpt>
      <trkpt lat="47.1858" lon="6.54466">
        <ele>767.468187</ele>
        <time>2023-01-15T18:12:36.260Z</time>
      </trkpt>
      <trkpt lat="47.18548" lon="6.54422">
        <ele>769.964241</ele>
        <time>2023-01-15T18:12:51.596Z</time>
      </trkpt>
      <trkpt lat="47.18525" lon="6.54392">
        <ele>771.686781</ele>
        <time>2023-01-15T18:13:00.154Z</time>
      </trkpt>
      <trkpt lat="47.18517" lon="6.54383">
        <ele>772.228892</ele>
        <time>2023-01-15T18:13:02.774Z</time>
      </trkpt>
      <trkpt lat="47.18493" lon="6.54356">
        <ele>773.961776</ele>
        <time>2023-01-15T18:13:10.681Z</time>
      </trkpt>
      <trkpt lat="47.18477" lon="6.54346">
        <ele>774.912372</ele>
        <time>2023-01-15T18:13:15.033Z</time>
      </trkpt>
      <trkpt lat="47.18435" lon="6.54284">
        <ele>777.827049</ele>
        <time>2023-01-15T18:13:31.545Z</time>
      </trkpt>
      <trkpt lat="47.18435" lon="6.54283">
        <ele>777.865846</ele>
        <time>2023-01-15T18:13:31.763Z</time>
      </trkpt>
      <trkpt lat="47.18421" lon="6.54253">
        <ele>778.857571</ele>
        <time>2023-01-15T18:13:38.225Z</time>
      </trkpt>
      <trkpt lat="47.18416" lon="6.54229">
        <ele>779.541398</ele>
        <time>2023-01-15T18:13:42.832Z</time>
      </trkpt>
      <trkpt lat="47.18409" lon="6.54212">
        <ele>780.085106</ele>
        <time>2023-01-15T18:13:46.219Z</time>
      </trkpt>
      <trkpt lat="47.18399" lon="6.54198">
        <ele>780.64292</ele>
        <time>2023-01-15T18:13:50.071Z</time>
      </trkpt>
      <trkpt lat="47.18386" lon="6.54188">
        <ele>781.234257</ele>
        <time>2023-01-15T18:13:53.800Z</time>
      </trkpt>
      <trkpt lat="47.18368" lon="6.54195">
        <ele>781.99372</ele>
        <time>2023-01-15T18:13:58.661Z</time>
      </trkpt>
      <trkpt lat="47.18357" lon="6.54191">
        <ele>782.491337</ele>
        <time>2023-01-15T18:14:01.973Z</time>
      </trkpt>
      <trkpt lat="47.18346" lon="6.54182">
        <ele>782.981408</ele>
        <time>2023-01-15T18:14:04.902Z</time>
      </trkpt>
      <trkpt lat="47.18317" lon="6.54147">
        <ele>784.594764</ele>
        <time>2023-01-15T18:14:14.938Z</time>
      </trkpt>
      <trkpt lat="47.18299" lon="6.54148">
        <ele>785.409989</ele>
        <time>2023-01-15T18:14:19.914Z</time>
      </trkpt>
      <trkpt lat="47.1827" lon="6.54119">
        <ele>787.031455</ele>
        <time>2023-01-15T18:14:29.445Z</time>
      </trkpt>
      <trkpt lat="47.18267" lon="6.54115">
        <ele>787.213473</ele>
        <time>2023-01-15T18:14:30.731Z</time>
      </trkpt>
      <trkpt lat="47.18224" lon="6.54039">
        <ele>790.365139</ele>
        <time>2023-01-15T18:14:50.019Z</time>
      </trkpt>
      <trkpt lat="47.18178" lon="6.53995">
        <ele>792.846409</ele>
        <time>2023-01-15T18:15:05.615Z</time>
      </trkpt>
      <trkpt lat="47.18149" lon="6.53963">
        <ele>794.254573</ele>
        <time>2023-01-15T18:15:15.258Z</time>
      </trkpt>
      <trkpt lat="47.18094" lon="6.53919">
        <ele>796.72114</ele>
        <time>2023-01-15T18:15:31.832Z</time>
      </trkpt>
      <trkpt lat="47.18038" lon="6.53856">
        <ele>799.47495</ele>
        <time>2023-01-15T18:15:49.854Z</time>
      </trkpt>
      <trkpt lat="47.1795" lon="6.53725">
        <ele>803.566294</ele>
        <time>2023-01-15T18:16:21.712Z</time>
      </trkpt>
      <trkpt lat="47.17939" lon="6.53703">
        <ele>804.163278</ele>
        <time>2023-01-15T18:16:25.768Z</time>
      </trkpt>
      <trkpt lat="47.17931" lon="6.53688">
        <ele>804.588111</ele>
        <time>2023-01-15T18:16:29.178Z</time>
      </trkpt>
      <trkpt lat="47.17901" lon="6.53655">
        <ele>806.066901</ele>
        <time>2023-01-15T18:16:38.409Z</time>
      </trkpt>
      <trkpt lat="47.1781" lon="6.53578">
        <ele>811.385399</ele>
        <time>2023-01-15T18:17:07.088Z</time>
      </trkpt>
      <trkpt lat="47.17539" lon="6.53387">
        <ele>831.415624</ele>
        <time>2023-01-15T18:18:46.491Z</time>
      </trkpt>
      <trkpt lat="47.1737" lon="6.53278">
        <ele>844.369248</ele>
        <time>2023-01-15T18:19:47.652Z</time>
      </trkpt>
      <trkpt lat="47.17331" lon="6.53249">
        <ele>847.313252</ele>
        <time>2023-01-15T18:20:01.138Z</time>
      </trkpt>
      <trkpt lat="47.17288" lon="6.53199">
        <ele>851.056689</ele>
        <time>2023-01-15T18:20:18.683Z</time>
      </trkpt>
      <trkpt lat="47.17262" lon="6.53164">
        <ele>853.665809</ele>
        <time>2023-01-15T18:20:30.365Z</time>
      </trkpt>
      <trkpt lat="47.17227" lon="6.53133">
        <ele>856.777223</ele>
        <time>2023-01-15T18:20:43.839Z</time>
      </trkpt>
      <trkpt lat="47.16912" lon="6.52966">
        <ele>883.059866</ele>
        <time>2023-01-15T18:22:43.396Z</time>
      </trkpt>
      <trkpt lat="47.16875" lon="6.52962">
        <ele>885.635968</ele>
        <time>2023-01-15T18:22:55.140Z</time>
      </trkpt>
      <trkpt lat="47.1678" lon="6.52934">
        <ele>892.433913</ele>
        <time>2023-01-15T18:23:25.507Z</time>
      </trkpt>
      <trkpt lat="47.16601" lon="6.52806">
        <ele>905.132266</ele>
        <time>2023-01-15T18:24:28.889Z</time>
      </trkpt>
      <trkpt lat="47.16447" lon="6.52672">
        <ele>912.257367</ele>
        <time>2023-01-15T18:25:13.896Z</time>
      </trkpt>
      <trkpt lat="47.16382" lon="6.52612">
        <ele>915.639626</ele>
        <time>2023-01-15T18:25:32.232Z</time>
      </trkpt>
      <trkpt lat="47.16354" lon="6.52589">
        <ele>917.038069</ele>
        <time>2023-01-15T18:25:39.904Z</time>
      </trkpt>
      <trkpt lat="47.16331" lon="6.52579">
        <ele>918.090834</ele>
        <time>2023-01-15T18:25:46.312Z</time>
      </trkpt>
      <trkpt lat="47.16262" lon="6.52536">
        <ele>922.875445</ele>
        <time>2023-01-15T18:26:11.781Z</time>
      </trkpt>
      <trkpt lat="47.16234" lon="6.52527">
        <ele>925.237968</ele>
        <time>2023-01-15T18:26:21.300Z</time>
      </trkpt>
      <trkpt lat="47.16224" lon="6.52534">
        <ele>926.233588</ele>
        <time>2023-01-15T18:26:26.668Z</time>
      </trkpt>
      <trkpt lat="47.16217" lon="6.52544">
        <ele>927.016748</ele>
        <time>2023-01-15T18:26:29.409Z</time>
      </trkpt>
      <trkpt lat="47.16212" lon="6.52556">
        <ele>927.865654</ele>
        <time>2023-01-15T18:26:32.559Z</time>
      </trkpt>
      <trkpt lat="47.16211" lon="6.52574">
        <ele>928.870513</ele>
        <time>2023-01-15T18:26:38.949Z</time>
      </trkpt>
      <trkpt lat="47.16211" lon="6.52597">
        <ele>930.240541</ele>
        <time>2023-01-15T18:26:44.071Z</time>
      </trkpt>
      <trkpt lat="47.16209" lon="6.52608">
        <ele>930.871461</ele>
        <time>2023-01-15T18:26:46.461Z</time>
      </trkpt>
      <trkpt lat="47.162" lon="6.52625">
        <ele>932.11546</ele>
        <time>2023-01-15T18:26:54.230Z</time>
      </trkpt>
      <trkpt lat="47.16188" lon="6.52635">
        <ele>933.311391</ele>
        <time>2023-01-15T18:26:58.366Z</time>
      </trkpt>
      <trkpt lat="47.16166" lon="6.52632">
        <ele>935.121088</ele>
        <time>2023-01-15T18:27:07.915Z</time>
      </trkpt>
      <trkpt lat="47.16143" lon="6.52617">
        <ele>936.486932</ele>
        <time>2023-01-15T18:27:15.255Z</time>
      </trkpt>
      <trkpt lat="47.16088" lon="6.52546">
        <ele>940.519544</ele>
        <time>2023-01-15T18:27:39.986Z</time>
      </trkpt>
      <trkpt lat="47.16072" lon="6.5254">
        <ele>941.380703</ele>
        <time>2023-01-15T18:27:44.888Z</time>
      </trkpt>
      <trkpt lat="47.16042" lon="6.52546">
        <ele>943.034504</ele>
        <time>2023-01-15T18:27:52.055Z</time>
      </trkpt>
      <trkpt lat="47.16031" lon="6.52544">
        <ele>943.649388</ele>
        <time>2023-01-15T18:27:54.529Z</time>
      </trkpt>
      <trkpt lat="47.16017" lon="6.52531">
        <ele>944.584486</ele>
        <time>2023-01-15T18:27:58.232Z</time>
      </trkpt>
      <trkpt lat="47.15971" lon="6.52475">
        <ele>944.743719</ele>
        <time>2023-01-15T18:28:10.313Z</time>
      </trkpt>
      <trkpt lat="47.15964" lon="6.52471">
        <ele>944.719834</ele>
        <time>2023-01-15T18:28:11.637Z</time>
      </trkpt>
      <trkpt lat="47.15954" lon="6.52475">
        <ele>944.687365</ele>
        <time>2023-01-15T18:28:13.590Z</time>
      </trkpt>
      <trkpt lat="47.15949" lon="6.52494">
        <ele>944.640414</ele>
        <time>2023-01-15T18:28:16.343Z</time>
      </trkpt>
      <trkpt lat="47.15932" lon="6.52653">
        <ele>943.46988</ele>
        <time>2023-01-15T18:28:34.899Z</time>
      </trkpt>
      <trkpt lat="47.1593" lon="6.52687">
        <ele>942.075304</ele>
        <time>2023-01-15T18:28:38.245Z</time>
      </trkpt>
      <trkpt lat="47.15937" lon="6.52769">
        <ele>938.708411</ele>
        <time>2023-01-15T18:28:45.825Z</time>
      </trkpt>
      <trkpt lat="47.15936" lon="6.52794">
        <ele>937.72533</ele>
        <time>2023-01-15T18:28:47.927Z</time>
      </trkpt>
      <trkpt lat="47.15933" lon="6.52812">
        <ele>936.963688</ele>
        <time>2023-01-15T18:28:49.540Z</time>
      </trkpt>
      <trkpt lat="47.15905" lon="6.52883">
        <ele>933.624966</ele>
        <time>2023-01-15T18:28:56.344Z</time>
      </trkpt>
      <trkpt lat="47.15747" lon="6.53099">
        <ele>910.255148</ele>
        <time>2023-01-15T18:29:21.621Z</time>
      </trkpt>
      <trkpt lat="47.15729" lon="6.53137">
        <ele>907.581463</ele>
        <time>2023-01-15T18:29:25.378Z</time>
      </trkpt>
      <trkpt lat="47.15722" lon="6.5316">
        <ele>906.096853</ele>
        <time>2023-01-15T18:29:27.481Z</time>
      </trkpt>
      <trkpt lat="47.15711" lon="6.53173">
        <ele>904.869444</ele>
        <time>2023-01-15T18:29:29.257Z</time>
      </trkpt>
      <trkpt lat="47.15706" lon="6.53174">
        <ele>904.437866</ele>
        <time>2023-01-15T18:29:29.881Z</time>
      </trkpt>
      <trkpt lat="47.1569" lon="6.53165">
        <ele>902.952707</ele>
        <time>2023-01-15T18:29:32.011Z</time>
      </trkpt>
      <trkpt lat="47.15669" lon="6.53136">
        <ele>900.476322</ele>
        <time>2023-01-15T18:29:35.648Z</time>
      </trkpt>
      <trkpt lat="47.15657" lon="6.53133">
        <ele>899.414631</ele>
        <time>2023-01-15T18:29:37.316Z</time>
      </trkpt>
      <trkpt lat="47.15625" lon="6.53145">
        <ele>896.979629</ele>
        <time>2023-01-15T18:29:41.784Z</time>
      </trkpt>
      <trkpt lat="47.15608" lon="6.53211">
        <ele>894.079669</ele>
        <time>2023-01-15T18:29:48.415Z</time>
      </trkpt>
      <trkpt lat="47.15584" lon="6.5335">
        <ele>888.220746</ele>
        <time>2023-01-15T18:30:01.949Z</time>
      </trkpt>
      <trkpt lat="47.15591" lon="6.53418">
        <ele>885.413747</ele>
        <time>2023-01-15T18:30:08.390Z</time>
      </trkpt>
      <trkpt lat="47.15603" lon="6.53472">
        <ele>883.035596</ele>
        <time>2023-01-15T18:30:13.656Z</time>
      </trkpt>
      <trkpt lat="47.15637" lon="6.53538">
        <ele>879.618321</ele>
        <time>2023-01-15T18:30:21.387Z</time>
      </trkpt>
      <trkpt lat="47.15656" lon="6.53565">
        <ele>878.040711</ele>
        <time>2023-01-15T18:30:24.994Z</time>
      </trkpt>
      <trkpt lat="47.15652" lon="6.53593">
        <ele>876.856509</ele>
        <time>2023-01-15T18:30:27.675Z</time>
      </trkpt>
      <trkpt lat="47.1562" lon="6.53615">
        <ele>874.459867</ele>
        <time>2023-01-15T18:30:32.624Z</time>
      </trkpt>
      <trkpt lat="47.15587" lon="6.53621">
        <ele>872.040861</ele>
        <time>2023-01-15T18:30:37.264Z</time>
      </trkpt>
      <trkpt lat="47.15527" lon="6.53597">
        <ele>867.596365</ele>
        <time>2023-01-15T18:30:45.570Z</time>
      </trkpt>
      <trkpt lat="47.15441" lon="6.53549">
        <ele>860.691493</ele>
        <time>2023-01-15T18:30:57.576Z</time>
      </trkpt>
      <trkpt lat="47.15403" lon="6.53506">
        <ele>856.762492</ele>
        <time>2023-01-15T18:31:03.813Z</time>
      </trkpt>
      <trkpt lat="47.15366" lon="6.53463">
        <ele>852.836536</ele>
        <time>2023-01-15T18:31:10.062Z</time>
      </trkpt>
      <trkpt lat="47.15356" lon="6.53455">
        <ele>851.963351</ele>
        <time>2023-01-15T18:31:11.337Z</time>
      </trkpt>
      <trkpt lat="47.15202" lon="6.53325">
        <ele>839.481808</ele>
        <time>2023-01-15T18:31:35.139Z</time>
      </trkpt>
      <trkpt lat="47.15088" lon="6.53165">
        <ele>831.735647</ele>
        <time>2023-01-15T18:31:57.808Z</time>
      </trkpt>
      <trkpt lat="47.15032" lon="6.53097">
        <ele>828.611331</ele>
        <time>2023-01-15T18:32:08.727Z</time>
      </trkpt>
      <trkpt lat="47.14996" lon="6.53054">
        <ele>826.715005</ele>
        <time>2023-01-15T18:32:15.751Z</time>
      </trkpt>
      <trkpt lat="47.14929" lon="6.5298">
        <ele>823.253662</ele>
        <time>2023-01-15T18:32:28.237Z</time>
      </trkpt>
      <trkpt lat="47.14907" lon="6.52939">
        <ele>821.796371</ele>
        <time>2023-01-15T18:32:33.224Z</time>
      </trkpt>
      <trkpt lat="47.14878" lon="6.52905">
        <ele>819.796205</ele>
        <time>2023-01-15T18:32:38.449Z</time>
      </trkpt>
      <trkpt lat="47.14856" lon="6.52895">
        <ele>818.51808</ele>
        <time>2023-01-15T18:32:41.610Z</time>
      </trkpt>
      <trkpt lat="47.1484" lon="6.52903">
        <ele>817.521626</ele>
        <time>2023-01-15T18:32:44.012Z</time>
      </trkpt>
      <trkpt lat="47.14827" lon="6.52919">
        <ele>816.569558</ele>
        <time>2023-01-15T18:32:46.416Z</time>
      </trkpt>
      <trkpt lat="47.14812" lon="6.5298">
        <ele>814.054994</ele>
        <time>2023-01-15T18:32:52.697Z</time>
      </trkpt>
      <trkpt lat="47.14807" lon="6.52997">
        <ele>813.347782</ele>
        <time>2023-01-15T18:32:54.367Z</time>
      </trkpt>
      <trkpt lat="47.14793" lon="6.53006">
        <ele>812.490835</ele>
        <time>2023-01-15T18:32:56.478Z</time>
      </trkpt>
      <trkpt lat="47.1478" lon="6.53">
        <ele>811.74186</ele>
        <time>2023-01-15T18:32:58.260Z</time>
      </trkpt>
      <trkpt lat="47.14771" lon="6.52985">
        <ele>810.981176</ele>
        <time>2023-01-15T18:33:00.040Z</time>
      </trkpt>
      <trkpt lat="47.14764" lon="6.52949">
        <ele>809.594752</ele>
        <time>2023-01-15T18:33:03.404Z</time>
      </trkpt>
      <trkpt lat="47.14759" lon="6.52901">
        <ele>807.787201</ele>
        <time>2023-01-15T18:33:07.854Z</time>
      </trkpt>
      <trkpt lat="47.14747" lon="6.52871">
        <ele>806.504654</ele>
        <time>2023-01-15T18:33:11.165Z</time>
      </trkpt>
      <trkpt lat="47.14726" lon="6.52847">
        <ele>805.019087</ele>
        <time>2023-01-15T18:33:14.970Z</time>
      </trkpt>
      <trkpt lat="47.1469" lon="6.52838">
        <ele>803.008336</ele>
        <time>2023-01-15T18:33:20.400Z</time>
      </trkpt>
      <trkpt lat="47.14676" lon="6.52837">
        <ele>802.243836</ele>
        <time>2023-01-15T18:33:22.398Z</time>
      </trkpt>
      <trkpt lat="47.14635" lon="6.52845">
        <ele>800.361234</ele>
        <time>2023-01-15T18:33:28.500Z</time>
      </trkpt>
      <trkpt lat="47.14542" lon="6.52845">
        <ele>796.677342</ele>
        <time>2023-01-15T18:33:41.746Z</time>
      </trkpt>
      <trkpt lat="47.14548" lon="6.52735">
        <ele>793.908523</ele>
        <time>2023-01-15T18:33:52.674Z</time>
      </trkpt>
      <trkpt lat="47.14551" lon="6.52658">
        <ele>792.732451</ele>
        <time>2023-01-15T18:34:00.194Z</time>
      </trkpt>
      <trkpt lat="47.14554" lon="6.52593">
        <ele>791.729721</ele>
        <time>2023-01-15T18:34:06.742Z</time>
      </trkpt>
      <trkpt lat="47.14553" lon="6.52574">
        <ele>791.437636</ele>
        <time>2023-01-15T18:34:08.700Z</time>
      </trkpt>
      <trkpt lat="47.14546" lon="6.52556">
        <ele>791.126186</ele>
        <time>2023-01-15T18:34:10.779Z</time>
      </trkpt>
      <trkpt lat="47.1454" lon="6.52548">
        <ele>790.940003</ele>
        <time>2023-01-15T18:34:12.213Z</time>
      </trkpt>
      <trkpt lat="47.14526" lon="6.52539">
        <ele>790.605465</ele>
        <time>2023-01-15T18:34:14.750Z</time>
      </trkpt>
      <trkpt lat="47.14517" lon="6.52538">
        <ele>790.390805</ele>
        <time>2023-01-15T18:34:16.215Z</time>
      </trkpt>
      <trkpt lat="47.14501" lon="6.52538">
        <ele>790.174625</ele>
        <time>2023-01-15T18:34:19.092Z</time>
      </trkpt>
      <trkpt lat="47.14483" lon="6.5254">
        <ele>790.265954</ele>
        <time>2023-01-15T18:34:22.148Z</time>
      </trkpt>
      <trkpt lat="47.14459" lon="6.52541">
        <ele>790.389501</ele>
        <time>2023-01-15T18:34:26.730Z</time>
      </trkpt>
      <trkpt lat="47.14431" lon="6.52533">
        <ele>790.537462</ele>
        <time>2023-01-15T18:34:32.203Z</time>
      </trkpt>
      <trkpt lat="47.14425" lon="6.52524">
        <ele>790.580771</ele>
        <time>2023-01-15T18:34:33.887Z</time>
      </trkpt>
      <trkpt lat="47.14416" lon="6.52522">
        <ele>790.624401</ele>
        <time>2023-01-15T18:34:35.389Z</time>
      </trkpt>
      <trkpt lat="47.1441" lon="6.52525">
        <ele>790.661367</ele>
        <time>2023-01-15T18:34:36.767Z</time>
      </trkpt>
      <trkpt lat="47.14404" lon="6.52535">
        <ele>790.708361</ele>
        <time>2023-01-15T18:34:38.777Z</time>
      </trkpt>
      <trkpt lat="47.14392" lon="6.52542">
        <ele>790.771051</ele>
        <time>2023-01-15T18:34:41.285Z</time>
      </trkpt>
      <trkpt lat="47.14365" lon="6.52548">
        <ele>790.909944</ele>
        <time>2023-01-15T18:34:46.882Z</time>
      </trkpt>
      <trkpt lat="47.1424" lon="6.52557">
        <ele>792.33615</ele>
        <time>2023-01-15T18:35:14.959Z</time>
      </trkpt>
      <trkpt lat="47.14199" lon="6.52568">
        <ele>792.898056</ele>
        <time>2023-01-15T18:35:23.826Z</time>
      </trkpt>
      <trkpt lat="47.14154" lon="6.52581">
        <ele>793.489183</ele>
        <time>2023-01-15T18:35:33.404Z</time>
      </trkpt>
      <trkpt lat="47.14119" lon="6.52582">
        <ele>793.362947</ele>
        <time>2023-01-15T18:35:40.575Z</time>
      </trkpt>
      <trkpt lat="47.13911" lon="6.5251">
        <ele>791.331751</ele>
        <time>2023-01-15T18:36:17.482Z</time>
      </trkpt>
      <trkpt lat="47.13889" lon="6.52506">
        <ele>790.868534</ele>
        <time>2023-01-15T18:36:20.676Z</time>
      </trkpt>
      <trkpt lat="47.13874" lon="6.52507">
        <ele>790.557569</ele>
        <time>2023-01-15T18:36:22.853Z</time>
      </trkpt>
      <trkpt lat="47.13868" lon="6.52509">
        <ele>790.427661</ele>
        <time>2023-01-15T18:36:23.749Z</time>
      </trkpt>
      <trkpt lat="47.13866" lon="6.5251">
        <ele>790.374627</ele>
        <time>2023-01-15T18:36:24.119Z</time>
      </trkpt>
      <trkpt lat="47.13863" lon="6.52499">
        <ele>790.210938</ele>
        <time>2023-01-15T18:36:25.256Z</time>
      </trkpt>
      <trkpt lat="47.13853" lon="6.52491">
        <ele>789.961669</ele>
        <time>2023-01-15T18:36:27.129Z</time>
      </trkpt>
      <trkpt lat="47.13766" lon="6.52455">
        <ele>787.694492</ele>
        <time>2023-01-15T18:36:40.844Z</time>
      </trkpt>
      <trkpt lat="47.13639" lon="6.524">
        <ele>783.839159</ele>
        <time>2023-01-15T18:37:01.690Z</time>
      </trkpt>
      <trkpt lat="47.13588" lon="6.52384">
        <ele>782.225421</ele>
        <time>2023-01-15T18:37:09.875Z</time>
      </trkpt>
      <trkpt lat="47.13572" lon="6.52388">
        <ele>781.719425</ele>
        <time>2023-01-15T18:37:12.509Z</time>
      </trkpt>
      <trkpt lat="47.13556" lon="6.52398">
        <ele>781.182343</ele>
        <time>2023-01-15T18:37:15.187Z</time>
      </trkpt>
      <trkpt lat="47.13537" lon="6.52418">
        <ele>780.444409</ele>
        <time>2023-01-15T18:37:18.938Z</time>
      </trkpt>
      <trkpt lat="47.13524" lon="6.52439">
        <ele>779.85696</ele>
        <time>2023-01-15T18:37:21.808Z</time>
      </trkpt>
      <trkpt lat="47.13504" lon="6.52469">
        <ele>778.970474</ele>
        <time>2023-01-15T18:37:26.099Z</time>
      </trkpt>
      <trkpt lat="47.13493" lon="6.52481">
        <ele>778.52047</ele>
        <time>2023-01-15T18:37:28.294Z</time>
      </trkpt>
      <trkpt lat="47.13472" lon="6.52495">
        <ele>777.541034</ele>
        <time>2023-01-15T18:37:31.624Z</time>
      </trkpt>
      <trkpt lat="47.1345" lon="6.52499">
        <ele>776.402208</ele>
        <time>2023-01-15T18:37:34.816Z</time>
      </trkpt>
      <trkpt lat="47.13418" lon="6.52493">
        <ele>774.728857</ele>
        <time>2023-01-15T18:37:39.290Z</time>
      </trkpt>
      <trkpt lat="47.1341" lon="6.52491">
        <ele>774.301346</ele>
        <time>2023-01-15T18:37:40.442Z</time>
      </trkpt>
      <trkpt lat="47.13355" lon="6.52455">
        <ele>771.139767</ele>
        <time>2023-01-15T18:37:48.891Z</time>
      </trkpt>
      <trkpt lat="47.13316" lon="6.52428">
        <ele>768.885676</ele>
        <time>2023-01-15T18:37:54.930Z</time>
      </trkpt>
      <trkpt lat="47.13287" lon="6.52408">
        <ele>767.25621</ele>
        <time>2023-01-15T18:37:59.282Z</time>
      </trkpt>
      <trkpt lat="47.13267" lon="6.524">
        <ele>766.23537</ele>
        <time>2023-01-15T18:38:02.072Z</time>
      </trkpt>
      <trkpt lat="47.1324" lon="6.52399">
        <ele>764.836424</ele>
        <time>2023-01-15T18:38:05.911Z</time>
      </trkpt>
      <trkpt lat="47.13219" lon="6.52408">
        <ele>763.705277</ele>
        <time>2023-01-15T18:38:08.979Z</time>
      </trkpt>
      <trkpt lat="47.13212" lon="6.52411">
        <ele>763.365655</ele>
        <time>2023-01-15T18:38:09.944Z</time>
      </trkpt>
      <trkpt lat="47.13201" lon="6.52416">
        <ele>762.755706</ele>
        <time>2023-01-15T18:38:11.664Z</time>
      </trkpt>
      <trkpt lat="47.13188" lon="6.52421">
        <ele>762.108672</ele>
        <time>2023-01-15T18:38:13.453Z</time>
      </trkpt>
      <trkpt lat="47.13185" lon="6.52423">
        <ele>761.907628</ele>
        <time>2023-01-15T18:38:14.010Z</time>
      </trkpt>
      <trkpt lat="47.13162" lon="6.52431">
        <ele>760.707197</ele>
        <time>2023-01-15T18:38:17.512Z</time>
      </trkpt>
      <trkpt lat="47.13149" lon="6.52438">
        <ele>760.017977</ele>
        <time>2023-01-15T18:38:19.490Z</time>
      </trkpt>
      <trkpt lat="47.13137" lon="6.52454">
        <ele>759.670334</ele>
        <time>2023-01-15T18:38:22.036Z</time>
      </trkpt>
      <trkpt lat="47.13116" lon="6.52478">
        <ele>759.670334</ele>
        <time>2023-01-15T18:38:25.995Z</time>
      </trkpt>
      <trkpt lat="47.13092" lon="6.52486">
        <ele>759.670334</ele>
        <time>2023-01-15T18:38:29.559Z</time>
      </trkpt>
      <trkpt lat="47.13061" lon="6.52502">
        <ele>759.670334</ele>
        <time>2023-01-15T18:38:34.546Z</time>
      </trkpt>
      <trkpt lat="47.13054" lon="6.52509">
        <ele>759.670334</ele>
        <time>2023-01-15T18:38:35.784Z</time>
      </trkpt>
      <trkpt lat="47.13042" lon="6.52526">
        <ele>759.670334</ele>
        <time>2023-01-15T18:38:38.428Z</time>
      </trkpt>
      <trkpt lat="47.1303" lon="6.52556">
        <ele>759.670334</ele>
        <time>2023-01-15T18:38:42.218Z</time>
      </trkpt>
      <trkpt lat="47.13021" lon="6.52551">
        <ele>759.670334</ele>
        <time>2023-01-15T18:38:43.559Z</time>
      </trkpt>
      <trkpt lat="47.13" lon="6.52535">
        <ele>759.670334</ele>
        <time>2023-01-15T18:38:47.306Z</time>
      </trkpt>
      <trkpt lat="47.12997" lon="6.52533">
        <ele>759.670334</ele>
        <time>2023-01-15T18:38:47.724Z</time>
      </trkpt>
      <trkpt lat="47.12979" lon="6.52521">
        <ele>759.670334</ele>
        <time>2023-01-15T18:38:50.844Z</time>
      </trkpt>
      <trkpt lat="47.12958" lon="6.52506">
        <ele>759.670334</ele>
        <time>2023-01-15T18:38:54.552Z</time>
      </trkpt>
    </trkseg>
  </trk>
</gpx>